Observation data for Panhandle on 10/14/2019      Previous  Date       Current Mesonet Observations  Soil Data  Daily Summary Page  Observations in Plain Language
KPA1 140500Z 06008KT 09/05 A2999 RMK A01 T00930048  RH  073%=      5-min Rain = 0
KPA1 140501Z 06008KT 09/05 A2999 RMK A01 T00940048  RH  073%=      5-min Rain = 0
KPA1 140502Z 06008KT 10/05 A2999 RMK A01 T00950048  RH  073%=      5-min Rain = 0
KPA1 140503Z 06008KT 10/05 A2999 RMK A01 T00950048  RH  072%=      5-min Rain = 0
KPA1 140504Z 06008KT 10/05 A2999 RMK A01 T00970048  RH  072%=      5-min Rain = 0
KPA1 140505Z 06008KT 10/05 A2999 RMK A01 T00980048  RH  071%=      5-min Rain = 0
KPA1 140506Z 06008KT 10/05 A2999 RMK A01 T00990048  RH  070%=      5-min Rain = 0
KPA1 140507Z 06007KT 10/05 A2999 RMK A01 T00990047  RH  070%=      5-min Rain = 0
KPA1 140508Z 06007KT 10/05 A2999 RMK A01 T00990047  RH  070%=      5-min Rain = 0
KPA1 140509Z 06007KT 10/05 A2999 RMK A01 T00990047  RH  070%=      5-min Rain = 0
KPA1 140510Z 06007KT 10/05 A2999 RMK A01 T00990046  RH  070%=      5-min Rain = 0
KPA1 140511Z 05007KT 10/05 A2999 RMK A01 T00990046  RH  070%=      5-min Rain = 0
KPA1 140512Z 05007KT 10/05 A2999 RMK A01 T00990046  RH  070%=      5-min Rain = 0
KPA1 140513Z 05007KT 10/05 A2999 RMK A01 T00980046  RH  070%=      5-min Rain = 0
KPA1 140514Z 05007KT 10/05 A2999 RMK A01 T00980045  RH  070%=      5-min Rain = 0
KPA1 140515Z 05007KT 10/05 A2999 RMK A01 T00980045  RH  070%=      5-min Rain = 0
KPA1 140516Z 05007KT 10/05 A2999 RMK A01 T00970045  RH  070%=      5-min Rain = 0
KPA1 140517Z 05007KT 10/05 A2999 RMK A01 T00960045  RH  070%=      5-min Rain = 0
KPA1 140518Z 05006KT 10/05 A2999 RMK A01 T00950045  RH  071%=      5-min Rain = 0
KPA1 140519Z 05007KT 10/05 A2999 RMK A01 T00950045  RH  071%=      5-min Rain = 0
KPA1 140520Z 06007KT 09/04 A2999 RMK A01 T00940044  RH  071%=      5-min Rain = 0
KPA1 140521Z 06006KT 09/05 A2999 RMK A01 T00940045  RH  071%=      5-min Rain = 0
KPA1 140522Z 06007KT 09/04 A2999 RMK A01 T00940044  RH  071%=      5-min Rain = 0
KPA1 140523Z 06007KT 09/04 A2999 RMK A01 T00940044  RH  071%=      5-min Rain = 0
KPA1 140524Z 06007KT 09/05 A2999 RMK A01 T00930045  RH  072%=      5-min Rain = 0
KPA1 140525Z 06007KT 09/05 A2998 RMK A01 T00930046  RH  072%=      5-min Rain = 0
KPA1 140526Z 06007KT 09/05 A2998 RMK A01 T00920047  RH  073%=      5-min Rain = 0
KPA1 140527Z 06006KT 09/05 A2998 RMK A01 T00920048  RH  074%=      5-min Rain = 0
KPA1 140528Z 06007KT 09/05 A2998 RMK A01 T00910048  RH  075%=      5-min Rain = 0
KPA1 140529Z 06006KT 09/05 A2998 RMK A01 T00900049  RH  075%=      5-min Rain = 0
KPA1 140530Z 07006KT 09/05 A2998 RMK A01 T00900049  RH  076%=      5-min Rain = 0
KPA1 140531Z 07006KT 09/05 A2998 RMK A01 T00890049  RH  076%=      5-min Rain = 0
KPA1 140532Z 07005KT 09/05 A2998 RMK A01 T00890050  RH  076%=      5-min Rain = 0
KPA1 140533Z 07005KT 09/05 A2998 RMK A01 T00880049  RH  076%=      5-min Rain = 0
KPA1 140534Z 08004KT 09/05 A2998 RMK A01 T00880049  RH  076%=      5-min Rain = 0
KPA1 140535Z 08003KT 09/05 A2998 RMK A01 T00880048  RH  076%=      5-min Rain = 0
KPA1 140536Z 08002KT 09/05 A2998 RMK A01 T00870047  RH  076%=      5-min Rain = 0
KPA1 140537Z 08001KT 09/05 A2998 RMK A01 T00860046  RH  076%=      5-min Rain = 0
KPA1 140538Z 07001KT 09/05 A2998 RMK A01 T00860046  RH  076%=      5-min Rain = 0
KPA1 140539Z 04000KT 09/05 A2998 RMK A01 T00880047  RH  075%=      5-min Rain = 0
KPA1 140540Z 05000KT 09/05 A2998 RMK A01 T00900047  RH  074%=      5-min Rain = 0
KPA1 140541Z 08000KT 09/05 A2998 RMK A01 T00920047  RH  073%=      5-min Rain = 0
KPA1 140542Z 00000KT 09/05 A2998 RMK A01 T00930046  RH  072%=      5-min Rain = 0
KPA1 140543Z 08000KT 10/05 A2998 RMK A01 T00950045  RH  071%=      5-min Rain = 0
KPA1 140544Z 09002KT 10/05 A2998 RMK A01 T00950045  RH  071%=      5-min Rain = 0
KPA1 140545Z 10000KT 10/04 A2998 RMK A01 T00950044  RH  070%=      5-min Rain = 0
KPA1 140546Z 09001KT 10/04 A2998 RMK A01 T00960043  RH  069%=      5-min Rain = 0
KPA1 140547Z 10001KT 10/04 A2998 RMK A01 T00960043  RH  069%=      5-min Rain = 0
KPA1 140548Z 10002KT 10/04 A2999 RMK A01 T00970042  RH  069%=      5-min Rain = 0
KPA1 140549Z 09002KT 10/04 A2999 RMK A01 T00980041  RH  067%=      5-min Rain = 0
KPA1 140550Z 10003KT 10/04 A2999 RMK A01 T01020041  RH  066%=      5-min Rain = 0
KPA1 140551Z 10003KT 11/04 A2999 RMK A01 T01050041  RH  065%=      5-min Rain = 0
KPA1 140552Z 11003KT 11/04 A2999 RMK A01 T01060041  RH  064%=      5-min Rain = 0
KPA1 140553Z 11003KT 11/04 A2999 RMK A01 T01060041  RH  064%=      5-min Rain = 0
KPA1 140554Z 13002KT 11/04 A2999 RMK A01 T01060041  RH  064%=      5-min Rain = 0
KPA1 140555Z 13002KT 11/04 A2999 RMK A01 T01070041  RH  064%=      5-min Rain = 0
KPA1 140556Z 14003KT 11/04 A2999 RMK A01 T01060041  RH  064%=      5-min Rain = 0
KPA1 140557Z 14003KT 10/04 A2998 RMK A01 T01040041  RH  065%=      5-min Rain = 0
KPA1 140558Z 17002KT 10/04 A2998 RMK A01 T01000042  RH  067%=      5-min Rain = 0
KPA1 140559Z 19002KT 10/04 A2998 RMK A01 T00970043  RH  069%=      5-min Rain = 0
KPA1 140600Z 19002KT 10/04 A2998 RMK A01 T00950042  RH  069%=      5-min Rain = 0
KPA1 140601Z 19002KT 10/04 A2998 RMK A01 T00960043  RH  069%=      5-min Rain = 0
KPA1 140602Z 17002KT 10/04 A2998 RMK A01 T00970043  RH  069%=      5-min Rain = 0
KPA1 140603Z 16002KT 10/04 A2998 RMK A01 T00980044  RH  069%=      5-min Rain = 0
KPA1 140604Z 15002KT 10/04 A2998 RMK A01 T01000043  RH  068%=      5-min Rain = 0
KPA1 140605Z 14003KT 10/04 A2998 RMK A01 T01010043  RH  067%=      5-min Rain = 0
KPA1 140606Z 14003KT 10/04 A2998 RMK A01 T01020042  RH  066%=      5-min Rain = 0
KPA1 140607Z 14003KT 10/04 A2998 RMK A01 T01020042  RH  066%=      5-min Rain = 0
KPA1 140608Z 14003KT 10/04 A2998 RMK A01 T01020042  RH  066%=      5-min Rain = 0
KPA1 140609Z 14003KT 10/04 A2998 RMK A01 T01010042  RH  067%=      5-min Rain = 0
KPA1 140610Z 14003KT 10/04 A2998 RMK A01 T01000041  RH  067%=      5-min Rain = 0
KPA1 140611Z 15002KT 10/04 A2998 RMK A01 T00980041  RH  068%=      5-min Rain = 0
KPA1 140612Z 16002KT 10/04 A2998 RMK A01 T00970041  RH  068%=      5-min Rain = 0
KPA1 140613Z 15002KT 10/04 A2998 RMK A01 T00960041  RH  068%=      5-min Rain = 0
KPA1 140614Z 14002KT 10/04 A2998 RMK A01 T00970041  RH  068%=      5-min Rain = 0
KPA1 140615Z 14002KT 10/04 A2998 RMK A01 T00970041  RH  068%=      5-min Rain = 0
KPA1 140616Z 13003KT 10/04 A2998 RMK A01 T00970042  RH  069%=      5-min Rain = 0
KPA1 140617Z 13003KT 10/04 A2998 RMK A01 T00970042  RH  069%=      5-min Rain = 0
KPA1 140618Z 13003KT 10/04 A2998 RMK A01 T00970042  RH  069%=      5-min Rain = 0
KPA1 140619Z 12003KT 10/04 A2998 RMK A01 T00960042  RH  069%=      5-min Rain = 0
KPA1 140620Z 13003KT 09/04 A2998 RMK A01 T00940042  RH  070%=      5-min Rain = 0
KPA1 140621Z 14002KT 09/04 A2998 RMK A01 T00930041  RH  070%=      5-min Rain = 0
KPA1 140622Z 14001KT 09/04 A2998 RMK A01 T00920041  RH  070%=      5-min Rain = 0
KPA1 140623Z 14001KT 09/04 A2998 RMK A01 T00920042  RH  071%=      5-min Rain = 0
KPA1 140624Z 13001KT 09/04 A2998 RMK A01 T00900041  RH  071%=      5-min Rain = 0
KPA1 140625Z 13001KT 09/04 A2998 RMK A01 T00890041  RH  072%=      5-min Rain = 0
KPA1 140626Z 13002KT 09/04 A2998 RMK A01 T00880041  RH  073%=      5-min Rain = 0
KPA1 140627Z 12003KT 09/04 A2998 RMK A01 T00860041  RH  073%=      5-min Rain = 0
KPA1 140628Z 12003KT 09/04 A2998 RMK A01 T00850041  RH  074%=      5-min Rain = 0
KPA1 140629Z 12003KT 08/04 A2998 RMK A01 T00840041  RH  074%=      5-min Rain = 0
KPA1 140630Z 12004KT 08/04 A2998 RMK A01 T00840041  RH  074%=      5-min Rain = 0
KPA1 140631Z 12004KT 09/04 A2998 RMK A01 T00850040  RH  074%=      5-min Rain = 0
KPA1 140632Z 12004KT 08/04 A2998 RMK A01 T00840041  RH  074%=      5-min Rain = 0
KPA1 140633Z 12004KT 08/04 A2998 RMK A01 T00820041  RH  075%=      5-min Rain = 0
KPA1 140634Z 12003KT 08/04 A2998 RMK A01 T00800040  RH  076%=      5-min Rain = 0
KPA1 140635Z 12003KT 08/04 A2998 RMK A01 T00780040  RH  077%=      5-min Rain = 0
KPA1 140636Z 12003KT 08/04 A2998 RMK A01 T00760040  RH  078%=      5-min Rain = 0
KPA1 140637Z 13003KT 08/04 A2998 RMK A01 T00760040  RH  078%=      5-min Rain = 0
KPA1 140638Z 13002KT 08/04 A2998 RMK A01 T00760040  RH  078%=      5-min Rain = 0
KPA1 140639Z 14002KT 08/04 A2998 RMK A01 T00770041  RH  078%=      5-min Rain = 0
KPA1 140640Z 15002KT 08/04 A2998 RMK A01 T00790041  RH  077%=      5-min Rain = 0
KPA1 140641Z 16002KT 08/04 A2998 RMK A01 T00830043  RH  076%=      5-min Rain = 0
KPA1 140642Z 15002KT 09/04 A2998 RMK A01 T00870043  RH  074%=      5-min Rain = 0
KPA1 140643Z 15002KT 09/04 A2998 RMK A01 T00890042  RH  073%=      5-min Rain = 0
KPA1 140644Z 14002KT 09/04 A2998 RMK A01 T00910042  RH  072%=      5-min Rain = 0
KPA1 140645Z 16002KT 09/04 A2998 RMK A01 T00910042  RH  071%=      5-min Rain = 0
KPA1 140646Z 15003KT 09/04 A2998 RMK A01 T00920042  RH  070%=      5-min Rain = 0
KPA1 140647Z 15004KT 09/04 A2998 RMK A01 T00930041  RH  070%=      5-min Rain = 0
KPA1 140648Z 14003KT 09/04 A2998 RMK A01 T00940040  RH  069%=      5-min Rain = 0
KPA1 140649Z 14003KT 10/04 A2998 RMK A01 T00950040  RH  069%=      5-min Rain = 0
KPA1 140650Z 15003KT 10/04 A2998 RMK A01 T00960040  RH  068%=      5-min Rain = 0
KPA1 140651Z 17003KT 10/04 A2998 RMK A01 T00980041  RH  067%=      5-min Rain = 0
KPA1 140652Z 18003KT 10/04 A2998 RMK A01 T01010041  RH  067%=      5-min Rain = 0
KPA1 140653Z 17003KT 10/04 A2998 RMK A01 T01030044  RH  067%=      5-min Rain = 0
KPA1 140654Z 16003KT 11/05 A2998 RMK A01 T01050046  RH  067%=      5-min Rain = 0
KPA1 140655Z 17003KT 11/05 A2998 RMK A01 T01070046  RH  066%=      5-min Rain = 0
KPA1 140656Z 18002KT 11/05 A2998 RMK A01 T01070047  RH  066%=      5-min Rain = 0
KPA1 140657Z 16002KT 11/05 A2998 RMK A01 T01070050  RH  067%=      5-min Rain = 0
KPA1 140658Z 15004KT 11/05 A2998 RMK A01 T01070049  RH  068%=      5-min Rain = 0
KPA1 140659Z 15003KT 11/05 A2998 RMK A01 T01070049  RH  068%=      5-min Rain = 0
KPA1 140700Z 17003KT 11/05 A2998 RMK A01 T01070049  RH  068%=      5-min Rain = 0
KPA1 140701Z 19003KT 11/05 A2998 RMK A01 T01070050  RH  068%=      5-min Rain = 0
KPA1 140702Z 19003KT 11/05 A2998 RMK A01 T01080052  RH  069%=      5-min Rain = 0
KPA1 140703Z 19003KT 11/06 A2998 RMK A01 T01090055  RH  070%=      5-min Rain = 0
KPA1 140704Z 16003KT 11/06 A2998 RMK A01 T01080056  RH  070%=      5-min Rain = 0
KPA1 140705Z 14003KT 11/06 A2998 RMK A01 T01070056  RH  071%=      5-min Rain = 0
KPA1 140706Z 13004KT 11/06 A2998 RMK A01 T01060056  RH  071%=      5-min Rain = 0
KPA1 140707Z 13004KT 11/05 A2998 RMK A01 T01070054  RH  070%=      5-min Rain = 0
KPA1 140708Z 13004KT 11/05 A2998 RMK A01 T01070053  RH  069%=      5-min Rain = 0
KPA1 140709Z 14003KT 11/05 A2998 RMK A01 T01060053  RH  070%=      5-min Rain = 0
KPA1 140710Z 15003KT 10/05 A2998 RMK A01 T01040052  RH  070%=      5-min Rain = 0
KPA1 140711Z 16002KT 10/05 A2998 RMK A01 T01020052  RH  071%=      5-min Rain = 0
KPA1 140712Z 20002KT 10/05 A2998 RMK A01 T01000051  RH  072%=      5-min Rain = 0
KPA1 140713Z 20002KT 10/05 A2998 RMK A01 T00990052  RH  072%=      5-min Rain = 0
KPA1 140714Z 18002KT 10/05 A2998 RMK A01 T01000051  RH  071%=      5-min Rain = 0
KPA1 140715Z 15002KT 10/05 A2998 RMK A01 T01000050  RH  071%=      5-min Rain = 0
KPA1 140716Z 15002KT 10/05 A2998 RMK A01 T01000049  RH  071%=      5-min Rain = 0
KPA1 140717Z 14002KT 10/05 A2998 RMK A01 T00990048  RH  071%=      5-min Rain = 0
KPA1 140718Z 15002KT 10/05 A2998 RMK A01 T00970047  RH  071%=      5-min Rain = 0
KPA1 140719Z 15002KT 09/05 A2998 RMK A01 T00920047  RH  073%=      5-min Rain = 0
KPA1 140720Z 15002KT 09/05 A2998 RMK A01 T00900047  RH  075%=      5-min Rain = 0
KPA1 140721Z 16002KT 09/05 A2998 RMK A01 T00880047  RH  076%=      5-min Rain = 0
KPA1 140722Z 15002KT 09/05 A2998 RMK A01 T00860047  RH  076%=      5-min Rain = 0
KPA1 140723Z 15002KT 09/05 A2998 RMK A01 T00860047  RH  077%=      5-min Rain = 0
KPA1 140724Z 15002KT 09/05 A2998 RMK A01 T00850046  RH  077%=      5-min Rain = 0
KPA1 140725Z 15002KT 08/05 A2998 RMK A01 T00830046  RH  078%=      5-min Rain = 0
KPA1 140726Z 15002KT 08/05 A2998 RMK A01 T00820047  RH  079%=      5-min Rain = 0
KPA1 140727Z 15003KT 08/05 A2998 RMK A01 T00820047  RH  079%=      5-min Rain = 0
KPA1 140728Z 15003KT 08/05 A2998 RMK A01 T00820048  RH  079%=      5-min Rain = 0
KPA1 140729Z 16003KT 08/05 A2998 RMK A01 T00820048  RH  079%=      5-min Rain = 0
KPA1 140730Z 17002KT 08/05 A2998 RMK A01 T00830049  RH  079%=      5-min Rain = 0
KPA1 140731Z 17002KT 08/05 A2998 RMK A01 T00840049  RH  079%=      5-min Rain = 0
KPA1 140732Z 18002KT 08/05 A2998 RMK A01 T00830047  RH  078%=      5-min Rain = 0
KPA1 140733Z 19002KT 08/05 A2998 RMK A01 T00830049  RH  079%=      5-min Rain = 0
KPA1 140734Z 19002KT 09/05 A2998 RMK A01 T00850050  RH  079%=      5-min Rain = 0
KPA1 140735Z 19003KT 09/05 A2998 RMK A01 T00870051  RH  078%=      5-min Rain = 0
KPA1 140736Z 19003KT 09/05 A2998 RMK A01 T00890051  RH  077%=      5-min Rain = 0
KPA1 140737Z 18003KT 09/05 A2998 RMK A01 T00910054  RH  077%=      5-min Rain = 0
KPA1 140738Z 18003KT 09/06 A2998 RMK A01 T00920056  RH  078%=      5-min Rain = 0
KPA1 140739Z 17003KT 09/06 A2998 RMK A01 T00930055  RH  077%=      5-min Rain = 0
KPA1 140740Z 16003KT 09/05 A2998 RMK A01 T00930053  RH  076%=      5-min Rain = 0
KPA1 140741Z 17003KT 09/05 A2998 RMK A01 T00920053  RH  076%=      5-min Rain = 0
KPA1 140742Z 17003KT 09/05 A2998 RMK A01 T00930054  RH  077%=      5-min Rain = 0
KPA1 140743Z 17003KT 09/05 A2998 RMK A01 T00920053  RH  076%=      5-min Rain = 0
KPA1 140744Z 17003KT 09/05 A2998 RMK A01 T00920053  RH  076%=      5-min Rain = 0
KPA1 140745Z 18003KT 09/05 A2998 RMK A01 T00920053  RH  077%=      5-min Rain = 0
KPA1 140746Z 19003KT 09/05 A2998 RMK A01 T00920054  RH  077%=      5-min Rain = 0
KPA1 140747Z 19003KT 09/06 A2998 RMK A01 T00930055  RH  077%=      5-min Rain = 0
KPA1 140748Z 19003KT 09/06 A2998 RMK A01 T00940055  RH  077%=      5-min Rain = 0
KPA1 140749Z 18003KT 10/06 A2997 RMK A01 T00950056  RH  077%=      5-min Rain = 0
KPA1 140750Z 18003KT 10/05 A2997 RMK A01 T00950054  RH  076%=      5-min Rain = 0
KPA1 140751Z 18004KT 10/05 A2997 RMK A01 T00950054  RH  075%=      5-min Rain = 0
KPA1 140752Z 17003KT 09/05 A2997 RMK A01 T00940053  RH  075%=      5-min Rain = 0
KPA1 140753Z 16003KT 09/05 A2997 RMK A01 T00920052  RH  076%=      5-min Rain = 0
KPA1 140754Z 17003KT 09/05 A2997 RMK A01 T00910052  RH  076%=      5-min Rain = 0
KPA1 140755Z 19004KT 09/05 A2997 RMK A01 T00900052  RH  077%=      5-min Rain = 0
KPA1 140756Z 21003KT 09/05 A2997 RMK A01 T00890052  RH  078%=      5-min Rain = 0
KPA1 140757Z 21003KT 09/05 A2997 RMK A01 T00890052  RH  078%=      5-min Rain = 0
KPA1 140758Z 20003KT 09/05 A2997 RMK A01 T00880052  RH  078%=      5-min Rain = 0
KPA1 140759Z 18003KT 09/05 A2997 RMK A01 T00880052  RH  078%=      5-min Rain = 0
KPA1 140800Z 18003KT 09/05 A2997 RMK A01 T00860049  RH  078%=      5-min Rain = 0
KPA1 140801Z 16003KT 09/05 A2997 RMK A01 T00850051  RH  079%=      5-min Rain = 0
KPA1 140802Z 17003KT 09/05 A2997 RMK A01 T00850052  RH  080%=      5-min Rain = 0
KPA1 140803Z 17004KT 09/05 A2997 RMK A01 T00860052  RH  080%=      5-min Rain = 0
KPA1 140804Z 16004KT 09/05 A2997 RMK A01 T00880051  RH  078%=      5-min Rain = 0
KPA1 140805Z 16004KT 09/05 A2997 RMK A01 T00890050  RH  076%=      5-min Rain = 0
KPA1 140806Z 17003KT 09/05 A2997 RMK A01 T00890048  RH  075%=      5-min Rain = 0
KPA1 140807Z 18004KT 09/05 A2997 RMK A01 T00900047  RH  075%=      5-min Rain = 0
KPA1 140808Z 17004KT 09/05 A2997 RMK A01 T00900047  RH  074%=      5-min Rain = 0
KPA1 140809Z 17004KT 09/05 A2997 RMK A01 T00910047  RH  074%=      5-min Rain = 0
KPA1 140810Z 17003KT 09/05 A2997 RMK A01 T00920047  RH  073%=      5-min Rain = 0
KPA1 140811Z 16003KT 09/05 A2997 RMK A01 T00930047  RH  073%=      5-min Rain = 0
KPA1 140812Z 16003KT 10/05 A2997 RMK A01 T00950047  RH  072%=      5-min Rain = 0
KPA1 140813Z 16004KT 10/05 A2997 RMK A01 T00960048  RH  072%=      5-min Rain = 0
KPA1 140814Z 16003KT 10/05 A2997 RMK A01 T00970048  RH  071%=      5-min Rain = 0
KPA1 140815Z 17003KT 10/05 A2997 RMK A01 T00980048  RH  071%=      5-min Rain = 0
KPA1 140816Z 17003KT 10/05 A2997 RMK A01 T00980048  RH  071%=      5-min Rain = 0
KPA1 140817Z 16003KT 10/05 A2997 RMK A01 T00980048  RH  071%=      5-min Rain = 0
KPA1 140818Z 16004KT 10/05 A2997 RMK A01 T00980049  RH  071%=      5-min Rain = 0
KPA1 140819Z 16004KT 10/05 A2997 RMK A01 T00970049  RH  072%=      5-min Rain = 0
KPA1 140820Z 17004KT 10/05 A2997 RMK A01 T00970049  RH  072%=      5-min Rain = 0
KPA1 140821Z 18003KT 10/05 A2997 RMK A01 T00960048  RH  072%=      5-min Rain = 0
KPA1 140822Z 17004KT 09/05 A2997 RMK A01 T00940048  RH  073%=      5-min Rain = 0
KPA1 140823Z 18004KT 09/05 A2997 RMK A01 T00930048  RH  074%=      5-min Rain = 0
KPA1 140824Z 18004KT 09/05 A2997 RMK A01 T00920048  RH  074%=      5-min Rain = 0
KPA1 140825Z 18003KT 09/05 A2997 RMK A01 T00910048  RH  074%=      5-min Rain = 0
KPA1 140826Z 18003KT 09/05 A2997 RMK A01 T00900047  RH  074%=      5-min Rain = 0
KPA1 140827Z 18004KT 09/05 A2997 RMK A01 T00880045  RH  075%=      5-min Rain = 0
KPA1 140828Z 18004KT 09/04 A2997 RMK A01 T00850044  RH  076%=      5-min Rain = 0
KPA1 140829Z 18005KT 08/05 A2997 RMK A01 T00840045  RH  077%=      5-min Rain = 0
KPA1 140830Z 18004KT 08/05 A2997 RMK A01 T00820045  RH  077%=      5-min Rain = 0
KPA1 140831Z 18004KT 08/05 A2997 RMK A01 T00820047  RH  079%=      5-min Rain = 0
KPA1 140832Z 18004KT 08/05 A2996 RMK A01 T00830048  RH  079%=      5-min Rain = 0
KPA1 140833Z 18003KT 08/05 A2996 RMK A01 T00830048  RH  078%=      5-min Rain = 0
KPA1 140834Z 19004KT 09/05 A2996 RMK A01 T00850048  RH  078%=      5-min Rain = 0
KPA1 140835Z 19003KT 09/05 A2996 RMK A01 T00850050  RH  078%=      5-min Rain = 0
KPA1 140836Z 19003KT 09/05 A2996 RMK A01 T00850049  RH  078%=      5-min Rain = 0
KPA1 140837Z 19003KT 08/05 A2996 RMK A01 T00840048  RH  078%=      5-min Rain = 0
KPA1 140838Z 19003KT 08/05 A2996 RMK A01 T00810048  RH  079%=      5-min Rain = 0
KPA1 140839Z 19003KT 08/05 A2996 RMK A01 T00810049  RH  080%=      5-min Rain = 0
KPA1 140840Z 19003KT 08/05 A2996 RMK A01 T00830052  RH  081%=      5-min Rain = 0
KPA1 140841Z 19003KT 08/05 A2996 RMK A01 T00840053  RH  081%=      5-min Rain = 0
KPA1 140842Z 19003KT 08/05 A2996 RMK A01 T00840052  RH  080%=      5-min Rain = 0
KPA1 140843Z 18003KT 08/05 A2996 RMK A01 T00840051  RH  080%=      5-min Rain = 0
KPA1 140844Z 18003KT 08/05 A2996 RMK A01 T00830051  RH  080%=      5-min Rain = 0
KPA1 140845Z 18003KT 08/05 A2996 RMK A01 T00820051  RH  081%=      5-min Rain = 0
KPA1 140846Z 18003KT 08/05 A2996 RMK A01 T00810051  RH  082%=      5-min Rain = 0
KPA1 140847Z 18003KT 08/05 A2996 RMK A01 T00810051  RH  082%=      5-min Rain = 0
KPA1 140848Z 18003KT 08/05 A2996 RMK A01 T00800051  RH  082%=      5-min Rain = 0
KPA1 140849Z 19002KT 08/05 A2996 RMK A01 T00800051  RH  082%=      5-min Rain = 0
KPA1 140850Z 18002KT 08/05 A2996 RMK A01 T00800052  RH  082%=      5-min Rain = 0
KPA1 140851Z 18003KT 08/05 A2996 RMK A01 T00800051  RH  082%=      5-min Rain = 0
KPA1 140852Z 19002KT 08/05 A2996 RMK A01 T00790050  RH  082%=      5-min Rain = 0
KPA1 140853Z 19003KT 08/05 A2996 RMK A01 T00790051  RH  082%=      5-min Rain = 0
KPA1 140854Z 19003KT 08/05 A2996 RMK A01 T00800052  RH  082%=      5-min Rain = 0
KPA1 140855Z 19003KT 08/05 A2996 RMK A01 T00810052  RH  082%=      5-min Rain = 0
KPA1 140856Z 19003KT 08/05 A2996 RMK A01 T00810051  RH  081%=      5-min Rain = 0
KPA1 140857Z 20003KT 08/05 A2996 RMK A01 T00800050  RH  081%=      5-min Rain = 0
KPA1 140858Z 20003KT 08/05 A2996 RMK A01 T00790049  RH  081%=      5-min Rain = 0
KPA1 140859Z 20003KT 08/05 A2996 RMK A01 T00790050  RH  082%=      5-min Rain = 0
KPA1 140900Z 19003KT 08/05 A2996 RMK A01 T00800049  RH  081%=      5-min Rain = 0
KPA1 140901Z 19003KT 08/05 A2996 RMK A01 T00810049  RH  081%=      5-min Rain = 0
KPA1 140902Z 19003KT 08/05 A2996 RMK A01 T00820049  RH  080%=      5-min Rain = 0
KPA1 140903Z 19003KT 08/05 A2996 RMK A01 T00830048  RH  079%=      5-min Rain = 0
KPA1 140904Z 20003KT 08/05 A2996 RMK A01 T00830046  RH  078%=      5-min Rain = 0
KPA1 140905Z 20003KT 08/05 A2996 RMK A01 T00820045  RH  077%=      5-min Rain = 0
KPA1 140906Z 19003KT 08/05 A2996 RMK A01 T00830047  RH  078%=      5-min Rain = 0
KPA1 140907Z 19003KT 08/05 A2996 RMK A01 T00830048  RH  078%=      5-min Rain = 0
KPA1 140908Z 19002KT 08/05 A2996 RMK A01 T00840050  RH  079%=      5-min Rain = 0
KPA1 140909Z 19002KT 09/05 A2996 RMK A01 T00850051  RH  079%=      5-min Rain = 0
KPA1 140910Z 18003KT 09/05 A2996 RMK A01 T00850051  RH  079%=      5-min Rain = 0
KPA1 140911Z 18003KT 09/05 A2996 RMK A01 T00850051  RH  079%=      5-min Rain = 0
KPA1 140912Z 19002KT 09/05 A2996 RMK A01 T00860051  RH  079%=      5-min Rain = 0
KPA1 140913Z 19002KT 09/05 A2996 RMK A01 T00850050  RH  079%=      5-min Rain = 0
KPA1 140914Z 19002KT 09/05 A2996 RMK A01 T00850050  RH  079%=      5-min Rain = 0
KPA1 140915Z 19002KT 08/05 A2996 RMK A01 T00830049  RH  079%=      5-min Rain = 0
KPA1 140916Z 18002KT 08/05 A2996 RMK A01 T00840051  RH  080%=      5-min Rain = 0
KPA1 140917Z 18002KT 08/05 A2996 RMK A01 T00830051  RH  080%=      5-min Rain = 0
KPA1 140918Z 18002KT 08/05 A2996 RMK A01 T00840051  RH  080%=      5-min Rain = 0
KPA1 140919Z 18002KT 08/05 A2996 RMK A01 T00840052  RH  080%=      5-min Rain = 0
KPA1 140920Z 18003KT 09/05 A2996 RMK A01 T00850052  RH  080%=      5-min Rain = 0
KPA1 140921Z 18003KT 09/05 A2996 RMK A01 T00860051  RH  079%=      5-min Rain = 0
KPA1 140922Z 18002KT 09/05 A2996 RMK A01 T00860051  RH  079%=      5-min Rain = 0
KPA1 140923Z 18002KT 09/05 A2996 RMK A01 T00860051  RH  079%=      5-min Rain = 0
KPA1 140924Z 18002KT 09/05 A2996 RMK A01 T00870051  RH  078%=      5-min Rain = 0
KPA1 140925Z 18002KT 09/05 A2996 RMK A01 T00870048  RH  077%=      5-min Rain = 0
KPA1 140926Z 18002KT 09/05 A2996 RMK A01 T00870046  RH  076%=      5-min Rain = 0
KPA1 140927Z 19003KT 09/05 A2996 RMK A01 T00870045  RH  075%=      5-min Rain = 0
KPA1 140928Z 19002KT 09/04 A2996 RMK A01 T00860044  RH  075%=      5-min Rain = 0
KPA1 140929Z 19002KT 09/05 A2995 RMK A01 T00860045  RH  075%=      5-min Rain = 0
KPA1 140930Z 20001KT 09/05 A2995 RMK A01 T00850045  RH  076%=      5-min Rain = 0
KPA1 140931Z 21002KT 08/05 A2995 RMK A01 T00840046  RH  077%=      5-min Rain = 0
KPA1 140932Z 20003KT 08/05 A2995 RMK A01 T00840047  RH  077%=      5-min Rain = 0
KPA1 140933Z 20003KT 08/05 A2995 RMK A01 T00840048  RH  078%=      5-min Rain = 0
KPA1 140934Z 20003KT 09/05 A2995 RMK A01 T00850050  RH  079%=      5-min Rain = 0
KPA1 140935Z 19004KT 09/05 A2995 RMK A01 T00850051  RH  079%=      5-min Rain = 0
KPA1 140936Z 19004KT 09/05 A2996 RMK A01 T00850050  RH  079%=      5-min Rain = 0
KPA1 140937Z 20003KT 09/05 A2996 RMK A01 T00850049  RH  078%=      5-min Rain = 0
KPA1 140938Z 20003KT 09/05 A2996 RMK A01 T00850048  RH  077%=      5-min Rain = 0
KPA1 140939Z 19002KT 08/05 A2996 RMK A01 T00840047  RH  078%=      5-min Rain = 0
KPA1 140940Z 20003KT 08/05 A2996 RMK A01 T00830047  RH  078%=      5-min Rain = 0
KPA1 140941Z 19004KT 08/05 A2996 RMK A01 T00830046  RH  077%=      5-min Rain = 0
KPA1 140942Z 19003KT 08/04 A2996 RMK A01 T00820044  RH  077%=      5-min Rain = 0
KPA1 140943Z 19003KT 08/04 A2996 RMK A01 T00810043  RH  077%=      5-min Rain = 0
KPA1 140944Z 19004KT 08/04 A2996 RMK A01 T00790043  RH  078%=      5-min Rain = 0
KPA1 140945Z 19003KT 08/04 A2996 RMK A01 T00790043  RH  078%=      5-min Rain = 0
KPA1 140946Z 20003KT 08/04 A2996 RMK A01 T00780042  RH  078%=      5-min Rain = 0
KPA1 140947Z 19003KT 08/04 A2996 RMK A01 T00760042  RH  079%=      5-min Rain = 0
KPA1 140948Z 18003KT 08/04 A2996 RMK A01 T00750042  RH  079%=      5-min Rain = 0
KPA1 140949Z 18002KT 07/04 A2996 RMK A01 T00740041  RH  080%=      5-min Rain = 0
KPA1 140950Z 17002KT 07/04 A2996 RMK A01 T00730041  RH  080%=      5-min Rain = 0
KPA1 140951Z 16003KT 07/04 A2996 RMK A01 T00720041  RH  081%=      5-min Rain = 0
KPA1 140952Z 15003KT 07/04 A2996 RMK A01 T00700039  RH  081%=      5-min Rain = 0
KPA1 140953Z 17003KT 07/04 A2996 RMK A01 T00670037  RH  081%=      5-min Rain = 0
KPA1 140954Z 18004KT 07/04 A2996 RMK A01 T00660038  RH  082%=      5-min Rain = 0
KPA1 140955Z 19005KT 07/04 A2996 RMK A01 T00650039  RH  083%=      5-min Rain = 0
KPA1 140956Z 19004KT 07/04 A2996 RMK A01 T00660040  RH  083%=      5-min Rain = 0
KPA1 140957Z 20004KT 07/04 A2996 RMK A01 T00670040  RH  083%=      5-min Rain = 0
KPA1 140958Z 21004KT 07/04 A2996 RMK A01 T00680040  RH  082%=      5-min Rain = 0
KPA1 140959Z 21004KT 07/04 A2996 RMK A01 T00670038  RH  082%=      5-min Rain = 0
KPA1 141000Z 21004KT 07/04 A2996 RMK A01 T00660038  RH  082%=      5-min Rain = 0
KPA1 141001Z 21003KT 07/04 A2996 RMK A01 T00660039  RH  083%=      5-min Rain = 0
KPA1 141002Z 21003KT 07/04 A2996 RMK A01 T00670040  RH  083%=      5-min Rain = 0
KPA1 141003Z 21003KT 07/04 A2996 RMK A01 T00690041  RH  082%=      5-min Rain = 0
KPA1 141004Z 21003KT 07/04 A2996 RMK A01 T00700041  RH  082%=      5-min Rain = 0
KPA1 141005Z 22003KT 07/04 A2996 RMK A01 T00720042  RH  081%=      5-min Rain = 0
KPA1 141006Z 22003KT 07/04 A2996 RMK A01 T00730042  RH  081%=      5-min Rain = 0
KPA1 141007Z 22003KT 07/04 A2996 RMK A01 T00740044  RH  081%=      5-min Rain = 0
KPA1 141008Z 22003KT 08/05 A2996 RMK A01 T00770045  RH  080%=      5-min Rain = 0
KPA1 141009Z 21003KT 08/04 A2996 RMK A01 T00780044  RH  079%=      5-min Rain = 0
KPA1 141010Z 21003KT 08/05 A2996 RMK A01 T00790045  RH  079%=      5-min Rain = 0
KPA1 141011Z 21004KT 08/05 A2996 RMK A01 T00800046  RH  079%=      5-min Rain = 0
KPA1 141012Z 22004KT 08/04 A2996 RMK A01 T00800044  RH  078%=      5-min Rain = 0
KPA1 141013Z 22005KT 08/04 A2996 RMK A01 T00790042  RH  078%=      5-min Rain = 0
KPA1 141014Z 21005KT 08/04 A2996 RMK A01 T00760041  RH  078%=      5-min Rain = 0
KPA1 141015Z 23004KT 08/04 A2996 RMK A01 T00750041  RH  079%=      5-min Rain = 0
KPA1 141016Z 21004KT 08/04 A2996 RMK A01 T00750043  RH  080%=      5-min Rain = 0
KPA1 141017Z 21004KT 08/04 A2996 RMK A01 T00750043  RH  080%=      5-min Rain = 0
KPA1 141018Z 21004KT 07/04 A2996 RMK A01 T00740044  RH  081%=      5-min Rain = 0
KPA1 141019Z 20003KT 07/04 A2996 RMK A01 T00740044  RH  081%=      5-min Rain = 0
KPA1 141020Z 19003KT 07/04 A2996 RMK A01 T00730043  RH  081%=      5-min Rain = 0
KPA1 141021Z 19003KT 07/04 A2996 RMK A01 T00720043  RH  082%=      5-min Rain = 0
KPA1 141022Z 18003KT 07/04 A2996 RMK A01 T00720044  RH  083%=      5-min Rain = 0
KPA1 141023Z 18003KT 07/05 A2996 RMK A01 T00710045  RH  083%=      5-min Rain = 0
KPA1 141024Z 18003KT 07/05 A2996 RMK A01 T00720045  RH  083%=      5-min Rain = 0
KPA1 141025Z 18002KT 07/05 A2996 RMK A01 T00710045  RH  084%=      5-min Rain = 0
KPA1 141026Z 20002KT 07/05 A2996 RMK A01 T00710046  RH  084%=      5-min Rain = 0
KPA1 141027Z 20002KT 07/05 A2996 RMK A01 T00720047  RH  084%=      5-min Rain = 0
KPA1 141028Z 19002KT 07/05 A2996 RMK A01 T00730047  RH  084%=      5-min Rain = 0
KPA1 141029Z 18002KT 07/05 A2996 RMK A01 T00740047  RH  083%=      5-min Rain = 0
KPA1 141030Z 19002KT 07/05 A2996 RMK A01 T00740046  RH  083%=      5-min Rain = 0
KPA1 141031Z 19002KT 07/05 A2996 RMK A01 T00740047  RH  083%=      5-min Rain = 0
KPA1 141032Z 19002KT 08/05 A2996 RMK A01 T00750050  RH  084%=      5-min Rain = 0
KPA1 141033Z 18003KT 08/05 A2996 RMK A01 T00770051  RH  084%=      5-min Rain = 0
KPA1 141034Z 19003KT 08/05 A2996 RMK A01 T00790052  RH  083%=      5-min Rain = 0
KPA1 141035Z 19003KT 08/05 A2996 RMK A01 T00810054  RH  083%=      5-min Rain = 0
KPA1 141036Z 20002KT 08/05 A2996 RMK A01 T00820054  RH  083%=      5-min Rain = 0
KPA1 141037Z 22002KT 08/05 A2996 RMK A01 T00820053  RH  082%=      5-min Rain = 0
KPA1 141038Z 22002KT 08/05 A2996 RMK A01 T00820051  RH  081%=      5-min Rain = 0
KPA1 141039Z 20003KT 08/05 A2996 RMK A01 T00830049  RH  079%=      5-min Rain = 0
KPA1 141040Z 19004KT 08/05 A2996 RMK A01 T00840047  RH  078%=      5-min Rain = 0
KPA1 141041Z 20004KT 09/05 A2996 RMK A01 T00850047  RH  077%=      5-min Rain = 0
KPA1 141042Z 20004KT 09/05 A2996 RMK A01 T00870047  RH  076%=      5-min Rain = 0
KPA1 141043Z 20004KT 09/05 A2996 RMK A01 T00890047  RH  075%=      5-min Rain = 0
KPA1 141044Z 20004KT 09/05 A2996 RMK A01 T00890045  RH  074%=      5-min Rain = 0
KPA1 141045Z 20004KT 09/04 A2996 RMK A01 T00880044  RH  074%=      5-min Rain = 0
KPA1 141046Z 19004KT 09/05 A2996 RMK A01 T00870045  RH  075%=      5-min Rain = 0
KPA1 141047Z 19004KT 09/05 A2996 RMK A01 T00860045  RH  075%=      5-min Rain = 0
KPA1 141048Z 19004KT 09/05 A2996 RMK A01 T00860046  RH  076%=      5-min Rain = 0
KPA1 141049Z 20004KT 09/05 A2996 RMK A01 T00850047  RH  077%=      5-min Rain = 0
KPA1 141050Z 19004KT 09/05 A2996 RMK A01 T00850048  RH  078%=      5-min Rain = 0
KPA1 141051Z 20004KT 09/05 A2996 RMK A01 T00850048  RH  078%=      5-min Rain = 0
KPA1 141052Z 20004KT 09/05 A2996 RMK A01 T00850048  RH  078%=      5-min Rain = 0
KPA1 141053Z 20004KT 08/05 A2996 RMK A01 T00840049  RH  078%=      5-min Rain = 0
KPA1 141054Z 20004KT 08/05 A2996 RMK A01 T00840050  RH  079%=      5-min Rain = 0
KPA1 141055Z 20004KT 08/05 A2996 RMK A01 T00840051  RH  079%=      5-min Rain = 0
KPA1 141056Z 19004KT 08/05 A2996 RMK A01 T00830050  RH  080%=      5-min Rain = 0
KPA1 141057Z 20003KT 08/05 A2996 RMK A01 T00810048  RH  080%=      5-min Rain = 0
KPA1 141058Z 19004KT 08/05 A2996 RMK A01 T00790048  RH  081%=      5-min Rain = 0
KPA1 141059Z 19004KT 08/05 A2996 RMK A01 T00770047  RH  081%=      5-min Rain = 0
KPA1 141100Z 18004KT 08/04 A2996 RMK A01 T00760044  RH  081%=      5-min Rain = 0
KPA1 141101Z 18005KT 07/04 A2996 RMK A01 T00730042  RH  081%=      5-min Rain = 0
KPA1 141102Z 18005KT 07/04 A2996 RMK A01 T00700041  RH  082%=      5-min Rain = 0
KPA1 141103Z 20004KT 07/04 A2996 RMK A01 T00690041  RH  083%=      5-min Rain = 0
KPA1 141104Z 21003KT 07/04 A2996 RMK A01 T00690042  RH  083%=      5-min Rain = 0
KPA1 141105Z 21003KT 07/04 A2996 RMK A01 T00680042  RH  083%=      5-min Rain = 0
KPA1 141106Z 21003KT 07/04 A2996 RMK A01 T00660042  RH  085%=      5-min Rain = 0
KPA1 141107Z 23003KT 07/04 A2996 RMK A01 T00660044  RH  086%=      5-min Rain = 0
KPA1 141108Z 23002KT 07/05 A2996 RMK A01 T00650045  RH  087%=      5-min Rain = 0
KPA1 141109Z 23002KT 07/05 A2996 RMK A01 T00660047  RH  088%=      5-min Rain = 0
KPA1 141110Z 23003KT 07/05 A2996 RMK A01 T00670048  RH  088%=      5-min Rain = 0
KPA1 141111Z 21003KT 07/05 A2996 RMK A01 T00690049  RH  087%=      5-min Rain = 0
KPA1 141112Z 22003KT 07/05 A2996 RMK A01 T00720050  RH  086%=      5-min Rain = 0
KPA1 141113Z 22004KT 07/05 A2996 RMK A01 T00720048  RH  085%=      5-min Rain = 0
KPA1 141114Z 22004KT 08/05 A2996 RMK A01 T00750050  RH  084%=      5-min Rain = 0
KPA1 141115Z 22004KT 08/05 A2996 RMK A01 T00770049  RH  083%=      5-min Rain = 0
KPA1 141116Z 22004KT 08/05 A2996 RMK A01 T00770046  RH  081%=      5-min Rain = 0
KPA1 141117Z 21004KT 08/04 A2996 RMK A01 T00750043  RH  081%=      5-min Rain = 0
KPA1 141118Z 21005KT 07/04 A2996 RMK A01 T00740044  RH  081%=      5-min Rain = 0
KPA1 141119Z 20004KT 07/04 A2996 RMK A01 T00740044  RH  082%=      5-min Rain = 0
KPA1 141120Z 20004KT 07/04 A2996 RMK A01 T00730043  RH  081%=      5-min Rain = 0
KPA1 141121Z 20003KT 07/04 A2996 RMK A01 T00700042  RH  082%=      5-min Rain = 0
KPA1 141122Z 20003KT 07/04 A2996 RMK A01 T00690043  RH  083%=      5-min Rain = 0
KPA1 141123Z 20002KT 07/04 A2996 RMK A01 T00670042  RH  084%=      5-min Rain = 0
KPA1 141124Z 19001KT 07/04 A2996 RMK A01 T00660041  RH  084%=      5-min Rain = 0
KPA1 141125Z 20002KT 06/04 A2996 RMK A01 T00640041  RH  085%=      5-min Rain = 0
KPA1 141126Z 20002KT 06/04 A2996 RMK A01 T00630041  RH  086%=      5-min Rain = 0
KPA1 141127Z 20003KT 06/04 A2996 RMK A01 T00620042  RH  087%=      5-min Rain = 0
KPA1 141128Z 21003KT 06/04 A2996 RMK A01 T00630043  RH  087%=      5-min Rain = 0
KPA1 141129Z 22003KT 06/04 A2996 RMK A01 T00630043  RH  087%=      5-min Rain = 0
KPA1 141130Z 22003KT 06/04 A2996 RMK A01 T00640044  RH  087%=      5-min Rain = 0
KPA1 141131Z 22003KT 07/05 A2996 RMK A01 T00660046  RH  087%=      5-min Rain = 0
KPA1 141132Z 21004KT 07/05 A2996 RMK A01 T00670046  RH  086%=      5-min Rain = 0
KPA1 141133Z 21004KT 07/05 A2996 RMK A01 T00680046  RH  086%=      5-min Rain = 0
KPA1 141134Z 21004KT 07/05 A2996 RMK A01 T00690045  RH  085%=      5-min Rain = 0
KPA1 141135Z 21004KT 07/05 A2996 RMK A01 T00720047  RH  084%=      5-min Rain = 0
KPA1 141136Z 20003KT 08/05 A2996 RMK A01 T00750047  RH  083%=      5-min Rain = 0
KPA1 141137Z 20003KT 08/05 A2996 RMK A01 T00770048  RH  082%=      5-min Rain = 0
KPA1 141138Z 20003KT 08/05 A2997 RMK A01 T00800050  RH  081%=      5-min Rain = 0
KPA1 141139Z 20003KT 08/05 A2997 RMK A01 T00820051  RH  081%=      5-min Rain = 0
KPA1 141140Z 21002KT 08/05 A2997 RMK A01 T00840052  RH  080%=      5-min Rain = 0
KPA1 141141Z 21002KT 09/05 A2997 RMK A01 T00850051  RH  080%=      5-min Rain = 0
KPA1 141142Z 22003KT 09/05 A2997 RMK A01 T00860051  RH  079%=      5-min Rain = 0
KPA1 141143Z 22003KT 09/05 A2997 RMK A01 T00850051  RH  079%=      5-min Rain = 0
KPA1 141144Z 22003KT 08/05 A2997 RMK A01 T00840049  RH  079%=      5-min Rain = 0
KPA1 141145Z 22004KT 08/05 A2997 RMK A01 T00830050  RH  079%=      5-min Rain = 0
KPA1 141146Z 22004KT 08/05 A2997 RMK A01 T00820048  RH  079%=      5-min Rain = 0
KPA1 141147Z 22004KT 08/05 A2997 RMK A01 T00810049  RH  080%=      5-min Rain = 0
KPA1 141148Z 22004KT 08/05 A2997 RMK A01 T00800049  RH  081%=      5-min Rain = 0
KPA1 141149Z 22004KT 08/05 A2997 RMK A01 T00800048  RH  080%=      5-min Rain = 0
KPA1 141150Z 21004KT 08/05 A2997 RMK A01 T00800046  RH  080%=      5-min Rain = 0
KPA1 141151Z 21004KT 08/05 A2997 RMK A01 T00780045  RH  080%=      5-min Rain = 0
KPA1 141152Z 20004KT 08/05 A2997 RMK A01 T00770046  RH  081%=      5-min Rain = 0
KPA1 141153Z 20004KT 08/05 A2997 RMK A01 T00760046  RH  081%=      5-min Rain = 0
KPA1 141154Z 20004KT 07/04 A2997 RMK A01 T00740044  RH  081%=      5-min Rain = 0
KPA1 141155Z 20004KT 07/04 A2997 RMK A01 T00720042  RH  081%=      5-min Rain = 0
KPA1 141156Z 20004KT 07/04 A2997 RMK A01 T00710043  RH  083%=      5-min Rain = 0
KPA1 141157Z 21004KT 07/04 A2997 RMK A01 T00700043  RH  083%=      5-min Rain = 0
KPA1 141158Z 22004KT 07/04 A2997 RMK A01 T00700043  RH  083%=      5-min Rain = 0
KPA1 141159Z 22004KT 07/04 A2997 RMK A01 T00700044  RH  083%=      5-min Rain = 0
KPA1 141200Z 23004KT 07/05 A2997 RMK A01 T00710046  RH  084%=      5-min Rain = 0
KPA1 141201Z 23005KT 07/05 A2997 RMK A01 T00730048  RH  084%=      5-min Rain = 0
KPA1 141202Z 23005KT 08/05 A2997 RMK A01 T00750046  RH  082%=      5-min Rain = 0
KPA1 141203Z 23005KT 08/04 A2997 RMK A01 T00760044  RH  081%=      5-min Rain = 0
KPA1 141204Z 23005KT 08/04 A2997 RMK A01 T00750044  RH  081%=      5-min Rain = 0
KPA1 141205Z 23005KT 07/04 A2997 RMK A01 T00740042  RH  080%=      5-min Rain = 0
KPA1 141206Z 23006KT 07/04 A2997 RMK A01 T00730041  RH  080%=      5-min Rain = 0
KPA1 141207Z 23005KT 07/04 A2997 RMK A01 T00730041  RH  080%=      5-min Rain = 0
KPA1 141208Z 23005KT 07/04 A2997 RMK A01 T00730041  RH  080%=      5-min Rain = 0
KPA1 141209Z 23005KT 07/04 A2997 RMK A01 T00730040  RH  080%=      5-min Rain = 0
KPA1 141210Z 23004KT 07/04 A2997 RMK A01 T00730040  RH  080%=      5-min Rain = 0
KPA1 141211Z 23005KT 07/04 A2997 RMK A01 T00720040  RH  080%=      5-min Rain = 0
KPA1 141212Z 23004KT 07/04 A2997 RMK A01 T00710039  RH  080%=      5-min Rain = 0
KPA1 141213Z 22005KT 07/04 A2997 RMK A01 T00710040  RH  080%=      5-min Rain = 0
KPA1 141214Z 22005KT 07/04 A2997 RMK A01 T00710039  RH  080%=      5-min Rain = 0
KPA1 141215Z 22004KT 07/04 A2997 RMK A01 T00720039  RH  080%=      5-min Rain = 0
KPA1 141216Z 22004KT 07/04 A2997 RMK A01 T00740040  RH  079%=      5-min Rain = 0
KPA1 141217Z 22003KT 08/04 A2997 RMK A01 T00750040  RH  078%=      5-min Rain = 0
KPA1 141218Z 22004KT 08/04 A2997 RMK A01 T00770040  RH  078%=      5-min Rain = 0
KPA1 141219Z 22004KT 08/04 A2997 RMK A01 T00780041  RH  077%=      5-min Rain = 0
KPA1 141220Z 22003KT 08/04 A2997 RMK A01 T00790041  RH  077%=      5-min Rain = 0
KPA1 141221Z 22004KT 08/04 A2997 RMK A01 T00800041  RH  077%=      5-min Rain = 0
KPA1 141222Z 22004KT 08/04 A2997 RMK A01 T00800041  RH  076%=      5-min Rain = 0
KPA1 141223Z 22003KT 08/04 A2997 RMK A01 T00800041  RH  076%=      5-min Rain = 0
KPA1 141224Z 22003KT 08/04 A2997 RMK A01 T00800041  RH  076%=      5-min Rain = 0
KPA1 141225Z 22004KT 08/04 A2997 RMK A01 T00800041  RH  076%=      5-min Rain = 0
KPA1 141226Z 22004KT 08/04 A2997 RMK A01 T00790040  RH  076%=      5-min Rain = 0
KPA1 141227Z 22003KT 08/04 A2997 RMK A01 T00790040  RH  077%=      5-min Rain = 0
KPA1 141228Z 23003KT 08/04 A2997 RMK A01 T00780040  RH  077%=      5-min Rain = 0
KPA1 141229Z 23003KT 08/04 A2997 RMK A01 T00770039  RH  077%=      5-min Rain = 0
KPA1 141230Z 23004KT 08/04 A2998 RMK A01 T00760041  RH  078%=      5-min Rain = 0
KPA1 141231Z 23004KT 08/04 A2998 RMK A01 T00760041  RH  079%=      5-min Rain = 0
KPA1 141232Z 23004KT 07/04 A2998 RMK A01 T00740041  RH  079%=      5-min Rain = 0
KPA1 141233Z 23004KT 07/04 A2998 RMK A01 T00740041  RH  080%=      5-min Rain = 0
KPA1 141234Z 23004KT 07/04 A2998 RMK A01 T00730041  RH  080%=      5-min Rain = 0
KPA1 141235Z 23004KT 07/04 A2998 RMK A01 T00730041  RH  080%=      5-min Rain = 0
KPA1 141236Z 22004KT 07/04 A2998 RMK A01 T00720041  RH  081%=      5-min Rain = 0
KPA1 141237Z 22004KT 07/04 A2998 RMK A01 T00730042  RH  081%=      5-min Rain = 0
KPA1 141238Z 22004KT 07/04 A2998 RMK A01 T00720042  RH  081%=      5-min Rain = 0
KPA1 141239Z 22004KT 07/04 A2998 RMK A01 T00710042  RH  082%=      5-min Rain = 0
KPA1 141240Z 21004KT 07/04 A2998 RMK A01 T00720044  RH  082%=      5-min Rain = 0
KPA1 141241Z 22004KT 07/04 A2998 RMK A01 T00710044  RH  083%=      5-min Rain = 0
KPA1 141242Z 22004KT 07/05 A2998 RMK A01 T00710045  RH  083%=      5-min Rain = 0
KPA1 141243Z 21004KT 07/05 A2998 RMK A01 T00710046  RH  084%=      5-min Rain = 0
KPA1 141244Z 21004KT 07/05 A2998 RMK A01 T00720047  RH  084%=      5-min Rain = 0
KPA1 141245Z 21005KT 07/05 A2998 RMK A01 T00740047  RH  083%=      5-min Rain = 0
KPA1 141246Z 22005KT 08/05 A2998 RMK A01 T00750047  RH  082%=      5-min Rain = 0
KPA1 141247Z 21005KT 08/05 A2998 RMK A01 T00760046  RH  081%=      5-min Rain = 0
KPA1 141248Z 21005KT 08/05 A2998 RMK A01 T00760045  RH  081%=      5-min Rain = 0
KPA1 141249Z 21005KT 08/04 A2998 RMK A01 T00750044  RH  081%=      5-min Rain = 0
KPA1 141250Z 22006KT 07/04 A2998 RMK A01 T00730044  RH  082%=      5-min Rain = 0
KPA1 141251Z 22006KT 07/05 A2998 RMK A01 T00730046  RH  083%=      5-min Rain = 0
KPA1 141252Z 22006KT 07/05 A2998 RMK A01 T00720046  RH  083%=      5-min Rain = 0
KPA1 141253Z 22006KT 07/05 A2998 RMK A01 T00730047  RH  084%=      5-min Rain = 0
KPA1 141254Z 22006KT 07/05 A2998 RMK A01 T00720047  RH  084%=      5-min Rain = 0
KPA1 141255Z 22006KT 07/05 A2998 RMK A01 T00720047  RH  084%=      5-min Rain = 0
KPA1 141256Z 22006KT 07/05 A2998 RMK A01 T00720047  RH  084%=      5-min Rain = 0
KPA1 141257Z 22005KT 07/05 A2998 RMK A01 T00720047  RH  084%=      5-min Rain = 0
KPA1 141258Z 22005KT 07/05 A2998 RMK A01 T00710047  RH  084%=      5-min Rain = 0
KPA1 141259Z 22005KT 07/05 A2998 RMK A01 T00710047  RH  085%=      5-min Rain = 0
KPA1 141300Z 22005KT 07/05 A2998 RMK A01 T00710048  RH  085%=      5-min Rain = 0
KPA1 141301Z 22005KT 07/05 A2998 RMK A01 T00700047  RH  085%=      5-min Rain = 0
KPA1 141302Z 22005KT 07/05 A2998 RMK A01 T00710047  RH  085%=      5-min Rain = 0
KPA1 141303Z 22005KT 07/05 A2998 RMK A01 T00710048  RH  085%=      5-min Rain = 0
KPA1 141304Z 22005KT 07/05 A2998 RMK A01 T00720048  RH  085%=      5-min Rain = 0
KPA1 141305Z 22005KT 07/05 A2998 RMK A01 T00720047  RH  085%=      5-min Rain = 0
KPA1 141306Z 22006KT 07/05 A2998 RMK A01 T00710047  RH  085%=      5-min Rain = 0
KPA1 141307Z 22005KT 07/05 A2998 RMK A01 T00710047  RH  085%=      5-min Rain = 0
KPA1 141308Z 22006KT 07/05 A2998 RMK A01 T00710048  RH  085%=      5-min Rain = 0
KPA1 141309Z 22006KT 07/05 A2998 RMK A01 T00710048  RH  085%=      5-min Rain = 0
KPA1 141310Z 23005KT 07/05 A2998 RMK A01 T00710048  RH  085%=      5-min Rain = 0
KPA1 141311Z 23005KT 07/05 A2998 RMK A01 T00720049  RH  085%=      5-min Rain = 0
KPA1 141312Z 23006KT 07/05 A2998 RMK A01 T00720049  RH  086%=      5-min Rain = 0
KPA1 141313Z 23006KT 07/05 A2998 RMK A01 T00720049  RH  085%=      5-min Rain = 0
KPA1 141314Z 23006KT 07/05 A2998 RMK A01 T00720048  RH  085%=      5-min Rain = 0
KPA1 141315Z 23006KT 07/05 A2998 RMK A01 T00720048  RH  085%=      5-min Rain = 0
KPA1 141316Z 23006KT 07/05 A2998 RMK A01 T00720048  RH  085%=      5-min Rain = 0
KPA1 141317Z 22006KT 07/05 A2998 RMK A01 T00720048  RH  084%=      5-min Rain = 0
KPA1 141318Z 22005KT 07/05 A2998 RMK A01 T00730049  RH  084%=      5-min Rain = 0
KPA1 141319Z 23005KT 07/05 A2998 RMK A01 T00730049  RH  085%=      5-min Rain = 0
KPA1 141320Z 23005KT 07/05 A2998 RMK A01 T00730049  RH  085%=      5-min Rain = 0
KPA1 141321Z 22005KT 07/05 A2998 RMK A01 T00740050  RH  085%=      5-min Rain = 0
KPA1 141322Z 22005KT 07/05 A2998 RMK A01 T00740050  RH  085%=      5-min Rain = 0
KPA1 141323Z 22004KT 07/05 A2998 RMK A01 T00740050  RH  085%=      5-min Rain = 0
KPA1 141324Z 22004KT 08/05 A2998 RMK A01 T00750052  RH  085%=      5-min Rain = 0
KPA1 141325Z 22005KT 08/05 A2998 RMK A01 T00770053  RH  085%=      5-min Rain = 0
KPA1 141326Z 22005KT 08/05 A2998 RMK A01 T00780053  RH  084%=      5-min Rain = 0
KPA1 141327Z 22005KT 08/05 A2998 RMK A01 T00790053  RH  084%=      5-min Rain = 0
KPA1 141328Z 22005KT 08/05 A2998 RMK A01 T00790054  RH  084%=      5-min Rain = 0
KPA1 141329Z 22005KT 08/05 A2998 RMK A01 T00810054  RH  084%=      5-min Rain = 0
KPA1 141330Z 22005KT 08/05 A2998 RMK A01 T00810054  RH  083%=      5-min Rain = 0
KPA1 141331Z 22005KT 08/05 A2998 RMK A01 T00820054  RH  083%=      5-min Rain = 0
KPA1 141332Z 22004KT 08/06 A2998 RMK A01 T00830055  RH  083%=      5-min Rain = 0
KPA1 141333Z 22004KT 08/06 A2998 RMK A01 T00830056  RH  083%=      5-min Rain = 0
KPA1 141334Z 22004KT 08/06 A2998 RMK A01 T00830057  RH  084%=      5-min Rain = 0
KPA1 141335Z 23004KT 08/06 A2998 RMK A01 T00830057  RH  084%=      5-min Rain = 0
KPA1 141336Z 23004KT 08/06 A2998 RMK A01 T00840058  RH  084%=      5-min Rain = 0
KPA1 141337Z 23004KT 08/06 A2998 RMK A01 T00840059  RH  084%=      5-min Rain = 0
KPA1 141338Z 23004KT 09/06 A2998 RMK A01 T00850059  RH  083%=      5-min Rain = 0
KPA1 141339Z 22004KT 09/06 A2998 RMK A01 T00860057  RH  082%=      5-min Rain = 0
KPA1 141340Z 23004KT 09/06 A2998 RMK A01 T00870056  RH  081%=      5-min Rain = 0
KPA1 141341Z 23004KT 09/06 A2998 RMK A01 T00880056  RH  081%=      5-min Rain = 0
KPA1 141342Z 23004KT 09/06 A2998 RMK A01 T00880057  RH  081%=      5-min Rain = 0
KPA1 141343Z 22004KT 09/06 A2998 RMK A01 T00890057  RH  080%=      5-min Rain = 0
KPA1 141344Z 22004KT 09/06 A2998 RMK A01 T00890057  RH  080%=      5-min Rain = 0
KPA1 141345Z 22004KT 09/06 A2998 RMK A01 T00900056  RH  079%=      5-min Rain = 0
KPA1 141346Z 23004KT 09/06 A2998 RMK A01 T00910057  RH  079%=      5-min Rain = 0
KPA1 141347Z 23004KT 09/06 A2998 RMK A01 T00910058  RH  080%=      5-min Rain = 0
KPA1 141348Z 23004KT 09/06 A2998 RMK A01 T00920060  RH  080%=      5-min Rain = 0
KPA1 141349Z 23005KT 09/06 A2998 RMK A01 T00920060  RH  080%=      5-min Rain = 0
KPA1 141350Z 23005KT 09/06 A2998 RMK A01 T00920058  RH  079%=      5-min Rain = 0
KPA1 141351Z 22005KT 09/06 A2998 RMK A01 T00930058  RH  079%=      5-min Rain = 0
KPA1 141352Z 22005KT 09/06 A2998 RMK A01 T00930059  RH  079%=      5-min Rain = 0
KPA1 141353Z 22005KT 09/06 A2998 RMK A01 T00930058  RH  079%=      5-min Rain = 0
KPA1 141354Z 23004KT 09/06 A2998 RMK A01 T00930059  RH  079%=      5-min Rain = 0
KPA1 141355Z 23005KT 09/06 A2998 RMK A01 T00940059  RH  079%=      5-min Rain = 0
KPA1 141356Z 22005KT 09/06 A2998 RMK A01 T00940058  RH  078%=      5-min Rain = 0
KPA1 141357Z 22004KT 10/06 A2998 RMK A01 T00950058  RH  078%=      5-min Rain = 0
KPA1 141358Z 22005KT 10/06 A2998 RMK A01 T00950059  RH  078%=      5-min Rain = 0
KPA1 141359Z 22005KT 10/06 A2998 RMK A01 T00960057  RH  077%=      5-min Rain = 0
KPA1 141400Z 22004KT 10/06 A2998 RMK A01 T00960059  RH  078%=      5-min Rain = 0
KPA1 141401Z 22005KT 10/06 A2998 RMK A01 T00970062  RH  079%=      5-min Rain = 0
KPA1 141402Z 22004KT 10/06 A2998 RMK A01 T00990063  RH  079%=      5-min Rain = 0
KPA1 141403Z 22004KT 10/06 A2998 RMK A01 T01000064  RH  079%=      5-min Rain = 0
KPA1 141404Z 22004KT 10/06 A2998 RMK A01 T01010063  RH  077%=      5-min Rain = 0
KPA1 141405Z 22005KT 10/06 A2998 RMK A01 T01020063  RH  077%=      5-min Rain = 0
KPA1 141406Z 22004KT 10/06 A2998 RMK A01 T01030062  RH  076%=      5-min Rain = 0
KPA1 141407Z 22004KT 10/06 A2998 RMK A01 T01040063  RH  076%=      5-min Rain = 0
KPA1 141408Z 22004KT 11/06 A2998 RMK A01 T01050061  RH  074%=      5-min Rain = 0
KPA1 141409Z 22004KT 11/06 A2998 RMK A01 T01060062  RH  074%=      5-min Rain = 0
KPA1 141410Z 22004KT 11/07 A2998 RMK A01 T01080065  RH  075%=      5-min Rain = 0
KPA1 141411Z 22004KT 11/07 A2998 RMK A01 T01090065  RH  075%=      5-min Rain = 0
KPA1 141412Z 23004KT 11/07 A2998 RMK A01 T01100065  RH  074%=      5-min Rain = 0
KPA1 141413Z 22004KT 11/07 A2998 RMK A01 T01110066  RH  074%=      5-min Rain = 0
KPA1 141414Z 22005KT 11/06 A2998 RMK A01 T01130064  RH  072%=      5-min Rain = 0
KPA1 141415Z 23004KT 11/06 A2998 RMK A01 T01140062  RH  070%=      5-min Rain = 0
KPA1 141416Z 22004KT 12/06 A2998 RMK A01 T01150063  RH  071%=      5-min Rain = 0
KPA1 141417Z 22004KT 12/07 A2998 RMK A01 T01160068  RH  072%=      5-min Rain = 0
KPA1 141418Z 22004KT 12/07 A2998 RMK A01 T01180069  RH  072%=      5-min Rain = 0
KPA1 141419Z 22004KT 12/07 A2998 RMK A01 T01200068  RH  071%=      5-min Rain = 0
KPA1 141420Z 22004KT 12/07 A2998 RMK A01 T01210067  RH  070%=      5-min Rain = 0
KPA1 141421Z 22004KT 12/07 A2998 RMK A01 T01220069  RH  070%=      5-min Rain = 0
KPA1 141422Z 22004KT 12/07 A2998 RMK A01 T01240072  RH  070%=      5-min Rain = 0
KPA1 141423Z 22004KT 13/07 A2998 RMK A01 T01260071  RH  070%=      5-min Rain = 0
KPA1 141424Z 22005KT 13/07 A2999 RMK A01 T01270073  RH  070%=      5-min Rain = 0
KPA1 141425Z 22005KT 13/07 A2999 RMK A01 T01280072  RH  069%=      5-min Rain = 0
KPA1 141426Z 22005KT 13/07 A2999 RMK A01 T01300070  RH  067%=      5-min Rain = 0
KPA1 141427Z 22005KT 13/07 A2999 RMK A01 T01310072  RH  068%=      5-min Rain = 0
KPA1 141428Z 22006KT 13/07 A2999 RMK A01 T01320072  RH  067%=      5-min Rain = 0
KPA1 141429Z 22005KT 13/07 A2999 RMK A01 T01340070  RH  065%=      5-min Rain = 0
KPA1 141430Z 22005KT 14/07 A2999 RMK A01 T01350072  RH  066%=      5-min Rain = 0
KPA1 141431Z 22005KT 14/07 A2999 RMK A01 T01360071  RH  065%=      5-min Rain = 0
KPA1 141432Z 22005KT 14/07 A2999 RMK A01 T01380074  RH  065%=      5-min Rain = 0
KPA1 141433Z 22005KT 14/07 A2999 RMK A01 T01400073  RH  064%=      5-min Rain = 0
KPA1 141434Z 22006KT 14/07 A2999 RMK A01 T01410070  RH  062%=      5-min Rain = 0
KPA1 141435Z 22005KT 14/07 A2999 RMK A01 T01420068  RH  061%=      5-min Rain = 0
KPA1 141436Z 23005KT 14/07 A2999 RMK A01 T01430071  RH  062%=      5-min Rain = 0
KPA1 141437Z 23005KT 15/07 A2999 RMK A01 T01450069  RH  061%=      5-min Rain = 0
KPA1 141438Z 22006KT 15/07 A2999 RMK A01 T01460069  RH  060%=      5-min Rain = 0
KPA1 141439Z 23006KT 15/07 A2999 RMK A01 T01480071  RH  060%=      5-min Rain = 0
KPA1 141440Z 23006KT 15/07 A2999 RMK A01 T01500068  RH  058%=      5-min Rain = 0
KPA1 141441Z 23006KT 15/07 A2999 RMK A01 T01510069  RH  058%=      5-min Rain = 0
KPA1 141442Z 23006KT 15/07 A2999 RMK A01 T01520070  RH  058%=      5-min Rain = 0
KPA1 141443Z 23006KT 15/07 A2999 RMK A01 T01530068  RH  057%=      5-min Rain = 0
KPA1 141444Z 23006KT 16/07 A2999 RMK A01 T01550072  RH  058%=      5-min Rain = 0
KPA1 141445Z 23007KT 16/07 A2999 RMK A01 T01570067  RH  055%=      5-min Rain = 0
KPA1 141446Z 23006KT 16/07 A2999 RMK A01 T01580069  RH  055%=      5-min Rain = 0
KPA1 141447Z 23005KT 16/07 A2999 RMK A01 T01600072  RH  056%=      5-min Rain = 0
KPA1 141448Z 23006KT 16/07 A2999 RMK A01 T01610072  RH  056%=      5-min Rain = 0
KPA1 141449Z 23005KT 16/07 A2999 RMK A01 T01620068  RH  054%=      5-min Rain = 0
KPA1 141450Z 24006KT 16/07 A2999 RMK A01 T01630070  RH  054%=      5-min Rain = 0
KPA1 141451Z 24005KT 16/07 A2999 RMK A01 T01640070  RH  054%=      5-min Rain = 0
KPA1 141452Z 23005KT 17/07 A2999 RMK A01 T01650069  RH  053%=      5-min Rain = 0
KPA1 141453Z 23006KT 17/07 A2999 RMK A01 T01660070  RH  053%=      5-min Rain = 0
KPA1 141454Z 23006KT 17/07 A2999 RMK A01 T01670070  RH  053%=      5-min Rain = 0
KPA1 141455Z 23006KT 17/07 A2999 RMK A01 T01690068  RH  052%=      5-min Rain = 0
KPA1 141456Z 24006KT 17/07 A2999 RMK A01 T01700068  RH  051%=      5-min Rain = 0
KPA1 141457Z 24006KT 17/07 A2999 RMK A01 T01710068  RH  051%=      5-min Rain = 0
KPA1 141458Z 24007KT 17/07 A2999 RMK A01 T01730069  RH  050%=      5-min Rain = 0
KPA1 141459Z 24007KT 17/07 A2999 RMK A01 T01740067  RH  049%=      5-min Rain = 0
KPA1 141500Z 24006KT 18/07 A2999 RMK A01 T01760067  RH  049%=      5-min Rain = 0
KPA1 141501Z 24006KT 18/07 A2999 RMK A01 T01770070  RH  049%=      5-min Rain = 0
KPA1 141502Z 24006KT 18/07 A2999 RMK A01 T01780067  RH  048%=      5-min Rain = 0
KPA1 141503Z 24005KT 18/07 A2999 RMK A01 T01790070  RH  049%=      5-min Rain = 0
KPA1 141504Z 24006KT 18/07 A2999 RMK A01 T01810068  RH  048%=      5-min Rain = 0
KPA1 141505Z 24006KT 18/07 A2999 RMK A01 T01820069  RH  048%=      5-min Rain = 0
KPA1 141506Z 24007KT 18/07 A2999 RMK A01 T01840070  RH  047%=      5-min Rain = 0
KPA1 141507Z 24007KT 19/07 A2999 RMK A01 T01850067  RH  046%=      5-min Rain = 0
KPA1 141508Z 24006KT 19/07 A2999 RMK A01 T01860069  RH  047%=      5-min Rain = 0
KPA1 141509Z 24007KT 19/07 A2999 RMK A01 T01880071  RH  046%=      5-min Rain = 0
KPA1 141510Z 24008KT 19/07 A2999 RMK A01 T01890065  RH  044%=      5-min Rain = 0
KPA1 141511Z 24007KT 19/07 A2999 RMK A01 T01900065  RH  044%=      5-min Rain = 0
KPA1 141512Z 24009KT 19/07 A2999 RMK A01 T01910066  RH  044%=      5-min Rain = 0
KPA1 141513Z 24008KT 19/06 A2999 RMK A01 T01920064  RH  043%=      5-min Rain = 0
KPA1 141514Z 24007KT 19/07 A2999 RMK A01 T01930065  RH  043%=      5-min Rain = 0
KPA1 141515Z 25006KT 19/07 A2999 RMK A01 T01940070  RH  044%=      5-min Rain = 0
KPA1 141516Z 24006KT 20/07 A2999 RMK A01 T01960069  RH  044%=      5-min Rain = 0
KPA1 141517Z 24007KT 20/07 A2999 RMK A01 T01970068  RH  043%=      5-min Rain = 0
KPA1 141518Z 25006KT 20/07 A2999 RMK A01 T01990069  RH  043%=      5-min Rain = 0
KPA1 141519Z 25006KT 20/08 A2999 RMK A01 T02010075  RH  044%=      5-min Rain = 0
KPA1 141520Z 24006KT 20/07 A2999 RMK A01 T02040072  RH  042%=      5-min Rain = 0
KPA1 141521Z 24006KT 21/07 A2999 RMK A01 T02050074  RH  043%=      5-min Rain = 0
KPA1 141522Z 24005KT 21/08 A2999 RMK A01 T02070078  RH  043%=      5-min Rain = 0
KPA1 141523Z 24007KT 21/08 A2999 RMK A01 T02090077  RH  042%=      5-min Rain = 0
KPA1 141524Z 24007KT 21/07 A2999 RMK A01 T02120072  RH  040%=      5-min Rain = 0
KPA1 141525Z 24008KT 22/07 A2999 RMK A01 T02150072  RH  040%=      5-min Rain = 0
KPA1 141526Z 25007KT 22/07 A2999 RMK A01 T02160070  RH  039%=      5-min Rain = 0
KPA1 141527Z 25008KT 22/07 A2999 RMK A01 T02190066  RH  037%=      5-min Rain = 0
KPA1 141528Z 24008KT 22/06 A2999 RMK A01 T02200064  RH  036%=      5-min Rain = 0
KPA1 141529Z 25007KT 22/06 A2999 RMK A01 T02210063  RH  036%=      5-min Rain = 0
KPA1 141530Z 23006KT 22/07 A2999 RMK A01 T02220071  RH  038%=      5-min Rain = 0
KPA1 141531Z 25006KT 22/07 A2999 RMK A01 T02230073  RH  038%=      5-min Rain = 0
KPA1 141532Z 23006KT 22/07 A2999 RMK A01 T02240074  RH  038%=      5-min Rain = 0
KPA1 141533Z 24006KT 22/08 A2999 RMK A01 T02240075  RH  038%=      5-min Rain = 0
KPA1 141534Z 26008KT 23/07 A2999 RMK A01 T02270066  RH  035%=      5-min Rain = 0
KPA1 141535Z 26009KT 23/06 A2999 RMK A01 T02300058  RH  033%=      5-min Rain = 0
KPA1 141536Z 26009KT 23/06 A2999 RMK A01 T02330057  RH  032%=      5-min Rain = 0
KPA1 141537Z 26010KT 24/05 A2999 RMK A01 T02350053  RH  031%=      5-min Rain = 0
KPA1 141538Z 26010KT 24/05 A2999 RMK A01 T02350050  RH  030%=      5-min Rain = 0
KPA1 141539Z 26011KT 24/05 A2999 RMK A01 T02350050  RH  030%=      5-min Rain = 0
KPA1 141540Z 26011KT 24/05 A2999 RMK A01 T02360051  RH  030%=      5-min Rain = 0
KPA1 141541Z 26013KT 24/05 A2999 RMK A01 T02360048  RH  030%=      5-min Rain = 0
KPA1 141542Z 26012KT 24/05 A2999 RMK A01 T02360047  RH  029%=      5-min Rain = 0
KPA1 141543Z 26010KT 24/05 A2999 RMK A01 T02360049  RH  030%=      5-min Rain = 0
KPA1 141544Z 26010KT 24/05 A2999 RMK A01 T02360049  RH  030%=      5-min Rain = 0
KPA1 141545Z 25009KT 24/05 A2999 RMK A01 T02380053  RH  030%=      5-min Rain = 0
KPA1 141546Z 26010KT 24/05 A2999 RMK A01 T02390053  RH  030%=      5-min Rain = 0
KPA1 141547Z 26011KT 24/05 A2999 RMK A01 T02400052  RH  030%=      5-min Rain = 0
KPA1 141548Z 26009KT 24/05 A2999 RMK A01 T02400052  RH  030%=      5-min Rain = 0
KPA1 141549Z 26009KT 24/05 A2999 RMK A01 T02400051  RH  029%=      5-min Rain = 0
KPA1 141550Z 28008KT 24/06 A2999 RMK A01 T02410058  RH  031%=      5-min Rain = 0
KPA1 141551Z 27008KT 24/06 A2999 RMK A01 T02430060  RH  031%=      5-min Rain = 0
KPA1 141552Z 27011KT 24/06 A2999 RMK A01 T02440055  RH  030%=      5-min Rain = 0
KPA1 141553Z 28011KT 24/05 A2999 RMK A01 T02430054  RH  029%=      5-min Rain = 0
KPA1 141554Z 28012KT 24/05 A2999 RMK A01 T02430052  RH  029%=      5-min Rain = 0
KPA1 141555Z 28012KT 24/05 A2999 RMK A01 T02420053  RH  030%=      5-min Rain = 0
KPA1 141556Z 27010KT 24/05 A2999 RMK A01 T02420053  RH  029%=      5-min Rain = 0
KPA1 141557Z 27011KT 24/06 A2999 RMK A01 T02440055  RH  030%=      5-min Rain = 0
KPA1 141558Z 27012KT 25/05 A2999 RMK A01 T02450052  RH  029%=      5-min Rain = 0
KPA1 141559Z 27012KT 24/05 A2999 RMK A01 T02440051  RH  029%=      5-min Rain = 0
KPA1 141600Z 27012KT 24/05 A2998 RMK A01 T02440049  RH  028%=      5-min Rain = 0
KPA1 141601Z 27011KT 24/05 A2999 RMK A01 T02440053  RH  029%=      5-min Rain = 0
KPA1 141602Z 27012KT 24/05 A2999 RMK A01 T02440051  RH  029%=      5-min Rain = 0
KPA1 141603Z 27010KT 25/05 A2998 RMK A01 T02450052  RH  029%=      5-min Rain = 0
KPA1 141604Z 27012KT 25/05 A2998 RMK A01 T02450053  RH  029%=      5-min Rain = 0
KPA1 141605Z 27012KT 25/05 A2998 RMK A01 T02450053  RH  029%=      5-min Rain = 0
KPA1 141606Z 27011KT 25/05 A2998 RMK A01 T02450052  RH  029%=      5-min Rain = 0
KPA1 141607Z 27009KT 25/05 A2998 RMK A01 T02450053  RH  029%=      5-min Rain = 0
KPA1 141608Z 26012KT 25/05 A2998 RMK A01 T02470053  RH  029%=      5-min Rain = 0
KPA1 141609Z 26010KT 25/05 A2998 RMK A01 T02460053  RH  029%=      5-min Rain = 0
KPA1 141610Z 27010KT 25/05 A2998 RMK A01 T02470054  RH  029%=      5-min Rain = 0
KPA1 141611Z 26009KT 25/06 A2998 RMK A01 T02490055  RH  029%=      5-min Rain = 0
KPA1 141612Z 26010KT 25/06 A2998 RMK A01 T02490057  RH  029%=      5-min Rain = 0
KPA1 141613Z 26010KT 25/06 A2998 RMK A01 T02510060  RH  029%=      5-min Rain = 0
KPA1 141614Z 26010KT 25/06 A2998 RMK A01 T02520056  RH  028%=      5-min Rain = 0
KPA1 141615Z 28010KT 25/06 A2998 RMK A01 T02520055  RH  028%=      5-min Rain = 0
KPA1 141616Z 27011KT 25/05 A2998 RMK A01 T02520052  RH  027%=      5-min Rain = 0
KPA1 141617Z 28010KT 25/05 A2998 RMK A01 T02520052  RH  028%=      5-min Rain = 0
KPA1 141618Z 28010KT 25/05 A2998 RMK A01 T02520054  RH  028%=      5-min Rain = 0
KPA1 141619Z 27009KT 26/06 A2998 RMK A01 T02550056  RH  028%=      5-min Rain = 0
KPA1 141620Z 27010KT 26/06 A2998 RMK A01 T02560055  RH  027%=      5-min Rain = 0
KPA1 141621Z 28010KT 26/06 A2998 RMK A01 T02560056  RH  028%=      5-min Rain = 0
KPA1 141622Z 27009KT 26/05 A2998 RMK A01 T02560053  RH  027%=      5-min Rain = 0
KPA1 141623Z 26009KT 26/05 A2998 RMK A01 T02550051  RH  027%=      5-min Rain = 0
KPA1 141624Z 27010KT 26/05 A2998 RMK A01 T02550051  RH  027%=      5-min Rain = 0
KPA1 141625Z 26010KT 26/05 A2998 RMK A01 T02560052  RH  027%=      5-min Rain = 0
KPA1 141626Z 26011KT 26/05 A2998 RMK A01 T02560051  RH  027%=      5-min Rain = 0
KPA1 141627Z 27010KT 26/05 A2998 RMK A01 T02570051  RH  027%=      5-min Rain = 0
KPA1 141628Z 27010KT 26/05 A2998 RMK A01 T02570052  RH  027%=      5-min Rain = 0
KPA1 141629Z 26011KT 26/05 A2998 RMK A01 T02570052  RH  027%=      5-min Rain = 0
KPA1 141630Z 26011KT 26/05 A2998 RMK A01 T02580051  RH  026%=      5-min Rain = 0
KPA1 141631Z 26009KT 26/05 A2998 RMK A01 T02580054  RH  027%=      5-min Rain = 0
KPA1 141632Z 26011KT 26/05 A2998 RMK A01 T02580053  RH  027%=      5-min Rain = 0
KPA1 141633Z 26010KT 26/05 A2998 RMK A01 T02590051  RH  026%=      5-min Rain = 0
KPA1 141634Z 25009KT 26/05 A2998 RMK A01 T02590052  RH  027%=      5-min Rain = 0
KPA1 141635Z 27007KT 26/06 A2998 RMK A01 T02590058  RH  027%=      5-min Rain = 0
KPA1 141636Z 28009KT 26/06 A2998 RMK A01 T02620061  RH  028%=      5-min Rain = 0
KPA1 141637Z 29010KT 26/05 A2998 RMK A01 T02620054  RH  026%=      5-min Rain = 0
KPA1 141638Z 28008KT 26/05 A2998 RMK A01 T02600054  RH  027%=      5-min Rain = 0
KPA1 141639Z 27009KT 26/06 A2998 RMK A01 T02610055  RH  027%=      5-min Rain = 0
KPA1 141640Z 28009KT 26/05 A2998 RMK A01 T02610052  RH  026%=      5-min Rain = 0
KPA1 141641Z 28008KT 26/05 A2998 RMK A01 T02600053  RH  027%=      5-min Rain = 0
KPA1 141642Z 29009KT 26/06 A2997 RMK A01 T02590055  RH  027%=      5-min Rain = 0
KPA1 141643Z 28006KT 26/06 A2997 RMK A01 T02600055  RH  027%=      5-min Rain = 0
KPA1 141644Z 28008KT 26/05 A2997 RMK A01 T02610054  RH  027%=      5-min Rain = 0
KPA1 141645Z 27008KT 26/06 A2997 RMK A01 T02620057  RH  027%=      5-min Rain = 0
KPA1 141646Z 28008KT 26/06 A2997 RMK A01 T02630057  RH  027%=      5-min Rain = 0
KPA1 141647Z 27009KT 26/06 A2997 RMK A01 T02640055  RH  026%=      5-min Rain = 0
KPA1 141648Z 26010KT 27/05 A2997 RMK A01 T02650051  RH  025%=      5-min Rain = 0
KPA1 141649Z 27008KT 27/05 A2997 RMK A01 T02650050  RH  025%=      5-min Rain = 0
KPA1 141650Z 27007KT 27/05 A2997 RMK A01 T02650051  RH  025%=      5-min Rain = 0
KPA1 141651Z 26009KT 27/06 A2997 RMK A01 T02650057  RH  026%=      5-min Rain = 0
KPA1 141652Z 26007KT 27/07 A2997 RMK A01 T02690066  RH  028%=      5-min Rain = 0
KPA1 141653Z 27008KT 27/06 A2997 RMK A01 T02730061  RH  026%=      5-min Rain = 0
KPA1 141654Z 28010KT 27/05 A2997 RMK A01 T02740054  RH  025%=      5-min Rain = 0
KPA1 141655Z 27009KT 27/05 A2997 RMK A01 T02730054  RH  025%=      5-min Rain = 0
KPA1 141656Z 26010KT 27/05 A2997 RMK A01 T02710046  RH  024%=      5-min Rain = 0
KPA1 141657Z 27010KT 27/05 A2997 RMK A01 T02690048  RH  024%=      5-min Rain = 0
KPA1 141658Z 27010KT 27/05 A2997 RMK A01 T02700049  RH  024%=      5-min Rain = 0
KPA1 141659Z 26009KT 27/05 A2997 RMK A01 T02710046  RH  024%=      5-min Rain = 0
KPA1 141700Z 25007KT 27/05 A2997 RMK A01 T02690047  RH  024%=      5-min Rain = 0
KPA1 141701Z 26009KT 27/05 A2997 RMK A01 T02700051  RH  025%=      5-min Rain = 0
KPA1 141702Z 27008KT 27/05 A2997 RMK A01 T02700046  RH  024%=      5-min Rain = 0
KPA1 141703Z 24008KT 27/05 A2997 RMK A01 T02700050  RH  025%=      5-min Rain = 0
KPA1 141704Z 24008KT 27/05 A2997 RMK A01 T02700049  RH  024%=      5-min Rain = 0
KPA1 141705Z 27007KT 27/05 A2997 RMK A01 T02700046  RH  024%=      5-min Rain = 0
KPA1 141706Z 27009KT 27/05 A2997 RMK A01 T02700052  RH  025%=      5-min Rain = 0
KPA1 141707Z 27009KT 27/05 A2997 RMK A01 T02720046  RH  024%=      5-min Rain = 0
KPA1 141708Z 28008KT 27/05 A2997 RMK A01 T02710046  RH  024%=      5-min Rain = 0
KPA1 141709Z 28007KT 27/05 A2997 RMK A01 T02710045  RH  023%=      5-min Rain = 0
KPA1 141710Z 26006KT 27/05 A2996 RMK A01 T02720052  RH  025%=      5-min Rain = 0
KPA1 141711Z 26006KT 27/06 A2996 RMK A01 T02740056  RH  025%=      5-min Rain = 0
KPA1 141712Z 25006KT 28/06 A2996 RMK A01 T02760060  RH  025%=      5-min Rain = 0
KPA1 141713Z 27007KT 28/06 A2996 RMK A01 T02780059  RH  025%=      5-min Rain = 0
KPA1 141714Z 25007KT 28/06 A2996 RMK A01 T02780056  RH  024%=      5-min Rain = 0
KPA1 141715Z 23009KT 28/05 A2996 RMK A01 T02790045  RH  022%=      5-min Rain = 0
KPA1 141716Z 25011KT 28/05 A2996 RMK A01 T02790045  RH  022%=      5-min Rain = 0
KPA1 141717Z 26009KT 28/05 A2996 RMK A01 T02790052  RH  023%=      5-min Rain = 0
KPA1 141718Z 25008KT 28/04 A2996 RMK A01 T02790035  RH  021%=      5-min Rain = 0
KPA1 141719Z 25009KT 28/04 A2996 RMK A01 T02790038  RH  021%=      5-min Rain = 0
KPA1 141720Z 23009KT 28/04 A2996 RMK A01 T02790038  RH  021%=      5-min Rain = 0
KPA1 141721Z 24006KT 28/03 A2996 RMK A01 T02770033  RH  021%=      5-min Rain = 0
KPA1 141722Z 24007KT 28/04 A2996 RMK A01 T02770044  RH  022%=      5-min Rain = 0
KPA1 141723Z 24013KT 28/04 A2996 RMK A01 T02790038  RH  021%=      5-min Rain = 0
KPA1 141724Z 24012KT 28/01 A2996 RMK A01 T02810012  RH  018%=      5-min Rain = 0
KPA1 141725Z 24009KT 28/01 A2996 RMK A01 T02810011  RH  017%=      5-min Rain = 0
KPA1 141726Z 23012KT 28/02 A2996 RMK A01 T02810019  RH  018%=      5-min Rain = 0
KPA1 141727Z 23014KT 28/02 A2996 RMK A01 T02810021  RH  019%=      5-min Rain = 0
KPA1 141728Z 23014KT 28/01 A2996 RMK A01 T02810005  RH  017%=      5-min Rain = 0
KPA1 141729Z 24012KT 28/00 A2996 RMK A01 T02810002  RH  016%=      5-min Rain = 0
KPA1 141730Z 24010KT 28/01 A2996 RMK A01 T02810006  RH  017%=      5-min Rain = 0
KPA1 141731Z 24011KT 28/01 A2996 RMK A01 T02820012  RH  017%=      5-min Rain = 0
KPA1 141732Z 24011KT 28/01 A2996 RMK A01 T02820005  RH  017%=      5-min Rain = 0
KPA1 141733Z 24009KT 28/02 A2996 RMK A01 T02810018  RH  018%=      5-min Rain = 0
KPA1 141734Z 23008KT 28/03 A2996 RMK A01 T02820025  RH  019%=      5-min Rain = 0
KPA1 141735Z 24010KT 28/02 A2995 RMK A01 T02830023  RH  019%=      5-min Rain = 0
KPA1 141736Z 24007KT 28/03 A2996 RMK A01 T02830027  RH  019%=      5-min Rain = 0
KPA1 141737Z 22012G18KT 28/03 A2995 RMK A01 T02840029  RH  019%=      5-min Rain = 0
KPA1 141738Z 23012KT 28/02 A2995 RMK A01 T02840022  RH  018%=      5-min Rain = 0
KPA1 141739Z 23011KT 28/02 A2995 RMK A01 T02840024  RH  019%=      5-min Rain = 0
KPA1 141740Z 24007KT 28/02 A2995 RMK A01 T02840024  RH  019%=      5-min Rain = 0
KPA1 141741Z 24008KT 28/03 A2995 RMK A01 T02830026  RH  019%=      5-min Rain = 0
KPA1 141742Z 24008KT 28/03 A2995 RMK A01 T02830029  RH  020%=      5-min Rain = 0
KPA1 141743Z 25010KT 28/03 A2995 RMK A01 T02830026  RH  019%=      5-min Rain = 0
KPA1 141744Z 25008KT 28/02 A2995 RMK A01 T02820020  RH  019%=      5-min Rain = 0
KPA1 141745Z 24009KT 28/03 A2995 RMK A01 T02820028  RH  020%=      5-min Rain = 0
KPA1 141746Z 23009KT 28/04 A2995 RMK A01 T02830039  RH  021%=      5-min Rain = 0
KPA1 141747Z 22008KT 29/04 A2995 RMK A01 T02850037  RH  021%=      5-min Rain = 0
KPA1 141748Z 23008KT 29/05 A2995 RMK A01 T02850047  RH  022%=      5-min Rain = 0
KPA1 141749Z 21009KT 29/04 A2995 RMK A01 T02870035  RH  020%=      5-min Rain = 0
KPA1 141750Z 24011KT 29/03 A2995 RMK A01 T02870034  RH  020%=      5-min Rain = 0
KPA1 141751Z 24012KT 29/03 A2995 RMK A01 T02870027  RH  019%=      5-min Rain = 0
KPA1 141752Z 24011KT 29/02 A2995 RMK A01 T02870019  RH  018%=      5-min Rain = 0
KPA1 141753Z 25012KT 29/01 A2995 RMK A01 T02860014  RH  017%=      5-min Rain = 0
KPA1 141754Z 24016KT 29/01 A2995 RMK A01 T02860014  RH  017%=      5-min Rain = 0
KPA1 141755Z 23015KT 29/01 A2995 RMK A01 T02850007  RH  016%=      5-min Rain = 0
KPA1 141756Z 23012KT 28/00 A2995 RMK A01 T02840004  RH  016%=      5-min Rain = 0
KPA1 141757Z 24012KT 28/01 A2995 RMK A01 T02840014  RH  018%=      5-min Rain = 0
KPA1 141758Z 23013KT 29/02 A2995 RMK A01 T02850018  RH  018%=      5-min Rain = 0
KPA1 141759Z 23012KT 28/02 A2995 RMK A01 T02840018  RH  018%=      5-min Rain = 0
KPA1 141800Z 23009KT 28/00 A2995 RMK A01 T02840002  RH  016%=      5-min Rain = 0
KPA1 141801Z 22009KT 28/01 A2995 RMK A01 T02840013  RH  017%=      5-min Rain = 0
KPA1 141802Z 24012KT 29/02 A2995 RMK A01 T02870024  RH  018%=      5-min Rain = 0
KPA1 141803Z 24009KT 29/01 A2995 RMK A01 T02860011  RH  017%=      5-min Rain = 0
KPA1 141804Z 23010KT 29/02 A2995 RMK A01 T02860020  RH  018%=      5-min Rain = 0
KPA1 141805Z 23011KT 29/02 A2995 RMK A01 T02870020  RH  018%=      5-min Rain = 0
KPA1 141806Z 23009KT 29/04 A2995 RMK A01 T02860036  RH  020%=      5-min Rain = 0
KPA1 141807Z 23011KT 29/02 A2995 RMK A01 T02880016  RH  017%=      5-min Rain = 0
KPA1 141808Z 22010KT 29/01 A2995 RMK A01 T02870010  RH  017%=      5-min Rain = 0
KPA1 141809Z 21007KT 29/02 A2995 RMK A01 T02870020  RH  018%=      5-min Rain = 0
KPA1 141810Z 23009KT 29/03 A2995 RMK A01 T02860028  RH  019%=      5-min Rain = 0
KPA1 141811Z 23010KT 29/04 A2995 RMK A01 T02860036  RH  020%=      5-min Rain = 0
KPA1 141812Z 24010KT 29/03 A2995 RMK A01 T02880025  RH  019%=      5-min Rain = 0
KPA1 141813Z 23011KT 29/02 A2994 RMK A01 T02890023  RH  018%=      5-min Rain = 0
KPA1 141814Z 23012KT 29/03 A2994 RMK A01 T02880034  RH  020%=      5-min Rain = 0
KPA1 141815Z 23012KT 29/03 A2994 RMK A01 T02880028  RH  019%=      5-min Rain = 0
KPA1 141816Z 22010KT 29/02 A2994 RMK A01 T02880020  RH  018%=      5-min Rain = 0
KPA1 141817Z 23017KT 29/02 A2994 RMK A01 T02880018  RH  018%=      5-min Rain = 0
KPA1 141818Z 23017KT 29/01 A2994 RMK A01 T02880009  RH  016%=      5-min Rain = 0
KPA1 141819Z 23013KT 29/01 A2994 RMK A01 T02880010  RH  017%=      5-min Rain = 0
KPA1 141820Z 23013KT 29/01 A2994 RMK A01 T02870005  RH  016%=      5-min Rain = 0
KPA1 141821Z 22011KT 29/00 A2994 RMK A01 T02860001  RH  016%=      5-min Rain = 0
KPA1 141822Z 22010KT 29/01 A2994 RMK A01 T02860012  RH  017%=      5-min Rain = 0
KPA1 141823Z 21011G20KT 29/02 A2994 RMK A01 T02890021  RH  018%=      5-min Rain = 0
KPA1 141824Z 22017KT 29/02 A2994 RMK A01 T02890023  RH  018%=      5-min Rain = 0
KPA1 141825Z 21013KT 29/01 A2994 RMK A01 T02880014  RH  017%=      5-min Rain = 0
KPA1 141826Z 21014KT 29/01 A2994 RMK A01 T02880014  RH  017%=      5-min Rain = 0
KPA1 141827Z 22015KT 29/02 A2994 RMK A01 T02880019  RH  018%=      5-min Rain = 0
KPA1 141828Z 21013KT 29/02 A2994 RMK A01 T02880018  RH  018%=      5-min Rain = 0
KPA1 141829Z 22013G18KT 29/02 A2994 RMK A01 T02880016  RH  017%=      5-min Rain = 0
KPA1 141830Z 22014KT 29/02 A2994 RMK A01 T02890017  RH  017%=      5-min Rain = 0
KPA1 141831Z 21011KT 29/01 A2994 RMK A01 T02880012  RH  017%=      5-min Rain = 0
KPA1 141832Z 22013KT 29/02 A2994 RMK A01 T02870020  RH  018%=      5-min Rain = 0
KPA1 141833Z 22012KT 29/03 A2994 RMK A01 T02880026  RH  019%=      5-min Rain = 0
KPA1 141834Z 21013KT 29/02 A2994 RMK A01 T02880017  RH  017%=      5-min Rain = 0
KPA1 141835Z 20013KT 29/01 A2994 RMK A01 T02880013  RH  017%=      5-min Rain = 0
KPA1 141836Z 21012KT 29/01 A2994 RMK A01 T02880008  RH  016%=      5-min Rain = 0
KPA1 141837Z 22011KT 29/01 A2993 RMK A01 T02880012  RH  017%=      5-min Rain = 0
KPA1 141838Z 23010KT 29/03 A2993 RMK A01 T02870030  RH  019%=      5-min Rain = 0
KPA1 141839Z 24010KT 29/02 A2993 RMK A01 T02870023  RH  018%=      5-min Rain = 0
KPA1 141840Z 22010KT 29/03 A2993 RMK A01 T02890027  RH  019%=      5-min Rain = 0
KPA1 141841Z 22014G20KT 29/03 A2993 RMK A01 T02880027  RH  019%=      5-min Rain = 0
KPA1 141842Z 22018KT 29/02 A2993 RMK A01 T02890017  RH  017%=      5-min Rain = 0
KPA1 141843Z 23016KT 29/01 A2993 RMK A01 T02870007  RH  016%=      5-min Rain = 0
KPA1 141844Z 23014KT 29/00 A2993 RMK A01 T02860004  RH  016%=      5-min Rain = 0
KPA1 141845Z 23010G15KT 29/00 A2993 RMK A01 T02850003  RH  016%=      5-min Rain = 0
KPA1 141846Z 22010KT 29/00 A2993 RMK A01 T02850003  RH  016%=      5-min Rain = 0
KPA1 141847Z 23012KT 29/01 A2993 RMK A01 T02860010  RH  017%=      5-min Rain = 0
KPA1 141848Z 22013KT 29/01 A2993 RMK A01 T02870011  RH  017%=      5-min Rain = 0
KPA1 141849Z 23008KT 29/00 A2993 RMK A01 T028800-0  RH  015%=      5-min Rain = 0
KPA1 141850Z 23007KT 29/00 A2993 RMK A01 T02870001  RH  016%=      5-min Rain = 0
KPA1 141851Z 23007KT 29/01 A2993 RMK A01 T02870009  RH  017%=      5-min Rain = 0
KPA1 141852Z 21009KT 29/02 A2993 RMK A01 T02890023  RH  018%=      5-min Rain = 0
KPA1 141853Z 21012KT 29/02 A2993 RMK A01 T02900024  RH  018%=      5-min Rain = 0
KPA1 141854Z 22016G21KT 29/03 A2993 RMK A01 T02900025  RH  018%=      5-min Rain = 0
KPA1 141855Z 24014KT 29/02 A2993 RMK A01 T02880019  RH  018%=      5-min Rain = 0
KPA1 141856Z 23013KT 29/01 A2993 RMK A01 T02870014  RH  017%=      5-min Rain = 0
KPA1 141857Z 22013KT 29/02 A2993 RMK A01 T02870022  RH  018%=      5-min Rain = 0
KPA1 141858Z 21012KT 29/02 A2993 RMK A01 T02870018  RH  018%=      5-min Rain = 0
KPA1 141859Z 20010KT 29/02 A2992 RMK A01 T02870020  RH  018%=      5-min Rain = 0
KPA1 141900Z 20013KT 29/04 A2992 RMK A01 T02890039  RH  020%=      5-min Rain = 0
KPA1 141901Z 20012KT 29/02 A2992 RMK A01 T02900021  RH  018%=      5-min Rain = 0
KPA1 141902Z 20012G17KT 29/01 A2992 RMK A01 T02890014  RH  017%=      5-min Rain = 0
KPA1 141903Z 20011KT 29/02 A2992 RMK A01 T02900020  RH  018%=      5-min Rain = 0
KPA1 141904Z 22008KT 29/03 A2992 RMK A01 T02900025  RH  018%=      5-min Rain = 0
KPA1 141905Z 23008KT 29/03 A2992 RMK A01 T02900026  RH  018%=      5-min Rain = 0
KPA1 141906Z 23012G17KT 29/02 A2992 RMK A01 T02880024  RH  018%=      5-min Rain = 0
KPA1 141907Z 24016KT 29/02 A2992 RMK A01 T02880020  RH  018%=      5-min Rain = 0
KPA1 141908Z 24016KT 29/01 A2992 RMK A01 T02880014  RH  017%=      5-min Rain = 0
KPA1 141909Z 23014KT 29/02 A2992 RMK A01 T02870022  RH  018%=      5-min Rain = 0
KPA1 141910Z 23016KT 29/02 A2992 RMK A01 T02880019  RH  018%=      5-min Rain = 0
KPA1 141911Z 23012KT 29/01 A2992 RMK A01 T02890012  RH  017%=      5-min Rain = 0
KPA1 141912Z 24009KT 29/01 A2992 RMK A01 T02890013  RH  017%=      5-min Rain = 0
KPA1 141913Z 24012G17KT 29/02 A2992 RMK A01 T02890021  RH  018%=      5-min Rain = 0
KPA1 141914Z 21012KT 29/02 A2992 RMK A01 T02890022  RH  018%=      5-min Rain = 0
KPA1 141915Z 22014KT 29/02 A2992 RMK A01 T02890022  RH  018%=      5-min Rain = 0
KPA1 141916Z 23015G20KT 29/03 A2991 RMK A01 T02900026  RH  018%=      5-min Rain = 0
KPA1 141917Z 23014KT 29/03 A2992 RMK A01 T02900027  RH  018%=      5-min Rain = 0
KPA1 141918Z 24016KT 29/02 A2991 RMK A01 T02900018  RH  017%=      5-min Rain = 0
KPA1 141919Z 23015KT 29/02 A2991 RMK A01 T02890015  RH  017%=      5-min Rain = 0
KPA1 141920Z 23014KT 29/02 A2991 RMK A01 T02880016  RH  017%=      5-min Rain = 0
KPA1 141921Z 23012KT 29/02 A2991 RMK A01 T02870021  RH  018%=      5-min Rain = 0
KPA1 141922Z 23009KT 29/01 A2991 RMK A01 T02880014  RH  017%=      5-min Rain = 0
KPA1 141923Z 24009KT 29/02 A2991 RMK A01 T02880018  RH  018%=      5-min Rain = 0
KPA1 141924Z 23012KT 29/03 A2991 RMK A01 T02880025  RH  018%=      5-min Rain = 0
KPA1 141925Z 23014KT 29/02 A2991 RMK A01 T02890016  RH  017%=      5-min Rain = 0
KPA1 141926Z 24015KT 29/01 A2991 RMK A01 T02890011  RH  017%=      5-min Rain = 0
KPA1 141927Z 23012KT 29/01 A2991 RMK A01 T02890011  RH  017%=      5-min Rain = 0
KPA1 141928Z 21011KT 29/03 A2991 RMK A01 T02900027  RH  019%=      5-min Rain = 0
KPA1 141929Z 21012KT 29/04 A2991 RMK A01 T02920036  RH  020%=      5-min Rain = 0
KPA1 141930Z 22011KT 29/02 A2991 RMK A01 T02940019  RH  017%=      5-min Rain = 0
KPA1 141931Z 22009KT 30/03 A2991 RMK A01 T02950028  RH  018%=      5-min Rain = 0
KPA1 141932Z 20012KT 30/03 A2991 RMK A01 T02960025  RH  018%=      5-min Rain = 0
KPA1 141933Z 20011KT 29/02 A2991 RMK A01 T02940023  RH  018%=      5-min Rain = 0
KPA1 141934Z 20009KT 29/02 A2991 RMK A01 T02920023  RH  018%=      5-min Rain = 0
KPA1 141935Z 20012KT 29/02 A2991 RMK A01 T02930024  RH  018%=      5-min Rain = 0
KPA1 141936Z 20014KT 29/02 A2991 RMK A01 T02930023  RH  018%=      5-min Rain = 0
KPA1 141937Z 21013KT 29/01 A2991 RMK A01 T02930013  RH  016%=      5-min Rain = 0
KPA1 141938Z 22013KT 29/03 A299 RMK A01 T02910029  RH  019%=      5-min Rain = 0
KPA1 141939Z 22013KT 29/04 A299 RMK A01 T02890035  RH  020%=      5-min Rain = 0
KPA1 141940Z 22012KT 29/04 A2991 RMK A01 T02890035  RH  020%=      5-min Rain = 0
KPA1 141941Z 23011KT 29/03 A299 RMK A01 T02880034  RH  020%=      5-min Rain = 0
KPA1 141942Z 23010KT 29/03 A299 RMK A01 T02870025  RH  019%=      5-min Rain = 0
KPA1 141943Z 23008KT 29/03 A299 RMK A01 T02870027  RH  019%=      5-min Rain = 0
KPA1 141944Z 23007KT 29/04 A299 RMK A01 T02890041  RH  021%=      5-min Rain = 0
KPA1 141945Z 22009KT 29/04 A299 RMK A01 T02920040  RH  020%=      5-min Rain = 0
KPA1 141946Z 23013KT 29/03 A299 RMK A01 T02940028  RH  018%=      5-min Rain = 0
KPA1 141947Z 23013KT 29/03 A299 RMK A01 T02930025  RH  018%=      5-min Rain = 0
KPA1 141948Z 22013KT 29/03 A299 RMK A01 T02910028  RH  019%=      5-min Rain = 0
KPA1 141949Z 23014KT 29/02 A299 RMK A01 T02910015  RH  017%=      5-min Rain = 0
KPA1 141950Z 22011KT 29/M00 A299 RMK A01 T02901001  RH  015%=      5-min Rain = 0
KPA1 141951Z 23008KT 29/M00 A299 RMK A01 T02911004  RH  015%=      5-min Rain = 0
KPA1 141952Z 23010KT 29/00 A299 RMK A01 T02910001  RH  015%=      5-min Rain = 0
KPA1 141953Z 22011KT 29/01 A299 RMK A01 T02910005  RH  016%=      5-min Rain = 0
KPA1 141954Z 23011KT 29/02 A299 RMK A01 T02930015  RH  017%=      5-min Rain = 0
KPA1 141955Z 22014KT 29/02 A299 RMK A01 T02930016  RH  017%=      5-min Rain = 0
KPA1 141956Z 22014KT 29/01 A299 RMK A01 T02920012  RH  016%=      5-min Rain = 0
KPA1 141957Z 23013KT 29/01 A2989 RMK A01 T02920009  RH  016%=      5-min Rain = 0
KPA1 141958Z 23012KT 29/01 A2989 RMK A01 T02910012  RH  017%=      5-min Rain = 0
KPA1 141959Z 23011KT 29/02 A2989 RMK A01 T02890023  RH  018%=      5-min Rain = 0
KPA1 142000Z 24012KT 29/02 A2989 RMK A01 T02900018  RH  017%=      5-min Rain = 0
KPA1 142001Z 23013KT 29/01 A2989 RMK A01 T02900008  RH  016%=      5-min Rain = 0
KPA1 142002Z 24009KT 29/M00 A2989 RMK A01 T02911001  RH  015%=      5-min Rain = 0
KPA1 142003Z 24010KT 29/00 A2989 RMK A01 T02900001  RH  015%=      5-min Rain = 0
KPA1 142004Z 24011KT 29/01 A2989 RMK A01 T02900011  RH  016%=      5-min Rain = 0
KPA1 142005Z 25014KT 29/01 A2989 RMK A01 T02910007  RH  016%=      5-min Rain = 0
KPA1 142006Z 23013KT 29/00 A2989 RMK A01 T02910001  RH  015%=      5-min Rain = 0
KPA1 142007Z 25013KT 29/01 A2989 RMK A01 T02920010  RH  016%=      5-min Rain = 0
KPA1 142008Z 25012KT 29/M00 A2989 RMK A01 T02911002  RH  015%=      5-min Rain = 0
KPA1 142009Z 23012KT 29/00 A2989 RMK A01 T02900003  RH  016%=      5-min Rain = 0
KPA1 142010Z 23013KT 29/01 A2989 RMK A01 T02910010  RH  016%=      5-min Rain = 0
KPA1 142011Z 24011KT 29/00 A2989 RMK A01 T02910002  RH  015%=      5-min Rain = 0
KPA1 142012Z 24009KT 29/01 A2989 RMK A01 T02910005  RH  016%=      5-min Rain = 0
KPA1 142013Z 22008KT 29/01 A2989 RMK A01 T02920012  RH  016%=      5-min Rain = 0
KPA1 142014Z 23008KT 29/01 A2989 RMK A01 T02930010  RH  016%=      5-min Rain = 0
KPA1 142015Z 22012KT 29/02 A2989 RMK A01 T02940017  RH  017%=      5-min Rain = 0
KPA1 142016Z 21012KT 29/03 A2989 RMK A01 T02940027  RH  018%=      5-min Rain = 0
KPA1 142017Z 21010KT 29/03 A2989 RMK A01 T02930034  RH  019%=      5-min Rain = 0
KPA1 142018Z 22009KT 29/03 A2989 RMK A01 T02920032  RH  019%=      5-min Rain = 0
KPA1 142019Z 23009KT 29/03 A2989 RMK A01 T02930026  RH  018%=      5-min Rain = 0
KPA1 142020Z 23008KT 29/01 A2989 RMK A01 T02940010  RH  016%=      5-min Rain = 0
KPA1 142021Z 23007KT 29/00 A2989 RMK A01 T02940001  RH  015%=      5-min Rain = 0
KPA1 142022Z 23006KT 29/M01 A2989 RMK A01 T02931008  RH  014%=      5-min Rain = 0
KPA1 142023Z 21008KT 29/01 A2988 RMK A01 T02920008  RH  016%=      5-min Rain = 0
KPA1 142024Z 22011KT 29/02 A2988 RMK A01 T02930020  RH  017%=      5-min Rain = 0
KPA1 142025Z 23014KT 30/02 A2988 RMK A01 T02950023  RH  018%=      5-min Rain = 0
KPA1 142026Z 22012KT 29/02 A2988 RMK A01 T02930015  RH  017%=      5-min Rain = 0
KPA1 142027Z 22015KT 29/03 A2988 RMK A01 T02920030  RH  019%=      5-min Rain = 0
KPA1 142028Z 22016KT 29/03 A2988 RMK A01 T02900025  RH  018%=      5-min Rain = 0
KPA1 142029Z 22014KT 29/01 A2989 RMK A01 T02900010  RH  016%=      5-min Rain = 0
KPA1 142030Z 22013KT 29/01 A2989 RMK A01 T02900005  RH  016%=      5-min Rain = 0
KPA1 142031Z 21013KT 29/02 A2989 RMK A01 T02890018  RH  017%=      5-min Rain = 0
KPA1 142032Z 21012KT 29/03 A2989 RMK A01 T02890030  RH  019%=      5-min Rain = 0
KPA1 142033Z 20012KT 29/03 A2988 RMK A01 T02910028  RH  018%=      5-min Rain = 0
KPA1 142034Z 19013KT 29/02 A2988 RMK A01 T02920023  RH  018%=      5-min Rain = 0
KPA1 142035Z 22013KT 29/03 A2988 RMK A01 T02920030  RH  019%=      5-min Rain = 0
KPA1 142036Z 22015KT 29/03 A2988 RMK A01 T02910028  RH  019%=      5-min Rain = 0
KPA1 142037Z 21012KT 29/03 A2988 RMK A01 T02900029  RH  019%=      5-min Rain = 0
KPA1 142038Z 21011KT 29/02 A2988 RMK A01 T02920024  RH  018%=      5-min Rain = 0
KPA1 142039Z 20009KT 29/02 A2988 RMK A01 T02920019  RH  017%=      5-min Rain = 0
KPA1 142040Z 20008KT 29/03 A2988 RMK A01 T02930034  RH  019%=      5-min Rain = 0
KPA1 142041Z 20010KT 29/03 A2988 RMK A01 T02930026  RH  018%=      5-min Rain = 0
KPA1 142042Z 20014G20KT 29/02 A2988 RMK A01 T02930024  RH  018%=      5-min Rain = 0
KPA1 142043Z 20017KT 29/01 A2988 RMK A01 T02930014  RH  017%=      5-min Rain = 0
KPA1 142044Z 21015KT 29/01 A2988 RMK A01 T02920007  RH  016%=      5-min Rain = 0
KPA1 142045Z 21011KT 29/01 A2988 RMK A01 T02920014  RH  017%=      5-min Rain = 0
KPA1 142046Z 23010KT 29/02 A2988 RMK A01 T02930022  RH  018%=      5-min Rain = 0
KPA1 142047Z 23012KT 29/03 A2988 RMK A01 T02930030  RH  019%=      5-min Rain = 0
KPA1 142048Z 23010KT 29/03 A2988 RMK A01 T02900026  RH  018%=      5-min Rain = 0
KPA1 142049Z 23010KT 29/02 A2988 RMK A01 T02900016  RH  017%=      5-min Rain = 0
KPA1 142050Z 23010KT 29/02 A2988 RMK A01 T02910020  RH  018%=      5-min Rain = 0
KPA1 142051Z 23013KT 29/02 A2988 RMK A01 T02900021  RH  018%=      5-min Rain = 0
KPA1 142052Z 21011KT 29/02 A2988 RMK A01 T02900015  RH  017%=      5-min Rain = 0
KPA1 142053Z 23012KT 29/02 A2988 RMK A01 T02910017  RH  017%=      5-min Rain = 0
KPA1 142054Z 24013KT 29/01 A2988 RMK A01 T02920010  RH  016%=      5-min Rain = 0
KPA1 142055Z 24012KT 29/00 A2988 RMK A01 T02920000  RH  015%=      5-min Rain = 0
KPA1 142056Z 24008KT 29/01 A2988 RMK A01 T02910010  RH  016%=      5-min Rain = 0
KPA1 142057Z 24010KT 29/01 A2988 RMK A01 T02910006  RH  016%=      5-min Rain = 0
KPA1 142058Z 23009KT 29/01 A2988 RMK A01 T02920013  RH  017%=      5-min Rain = 0
KPA1 142059Z 22008KT 29/01 A2988 RMK A01 T02930009  RH  016%=      5-min Rain = 0
KPA1 142100Z 22009KT 29/01 A2988 RMK A01 T02920011  RH  016%=      5-min Rain = 0
KPA1 142101Z 22008KT 29/00 A2988 RMK A01 T02920004  RH  016%=      5-min Rain = 0
KPA1 142102Z 22009KT 29/00 A2988 RMK A01 T02920004  RH  015%=      5-min Rain = 0
KPA1 142103Z 22010KT 29/01 A2988 RMK A01 T02930014  RH  017%=      5-min Rain = 0
KPA1 142104Z 24013KT 29/03 A2988 RMK A01 T02930028  RH  018%=      5-min Rain = 0
KPA1 142105Z 24013KT 29/01 A2988 RMK A01 T02920012  RH  016%=      5-min Rain = 0
KPA1 142106Z 24013KT 29/01 A2988 RMK A01 T02920012  RH  016%=      5-min Rain = 0
KPA1 142107Z 23010KT 29/01 A2988 RMK A01 T02920011  RH  016%=      5-min Rain = 0
KPA1 142108Z 23012KT 29/01 A2988 RMK A01 T02920013  RH  017%=      5-min Rain = 0
KPA1 142109Z 23012KT 29/02 A2988 RMK A01 T02910015  RH  017%=      5-min Rain = 0
KPA1 142110Z 22010KT 29/01 A2988 RMK A01 T02900012  RH  017%=      5-min Rain = 0
KPA1 142111Z 21014KT 29/02 A2988 RMK A01 T02910015  RH  017%=      5-min Rain = 0
KPA1 142112Z 21011KT 29/01 A2988 RMK A01 T02920008  RH  016%=      5-min Rain = 0
KPA1 142113Z 22008KT 29/02 A2988 RMK A01 T02920019  RH  017%=      5-min Rain = 0
KPA1 142114Z 21008KT 29/02 A2988 RMK A01 T02910023  RH  018%=      5-min Rain = 0
KPA1 142115Z 22009KT 29/02 A2988 RMK A01 T02910017  RH  017%=      5-min Rain = 0
KPA1 142116Z 22010KT 29/01 A2987 RMK A01 T02920012  RH  016%=      5-min Rain = 0
KPA1 142117Z 20011G17KT 29/02 A2988 RMK A01 T02920022  RH  018%=      5-min Rain = 0
KPA1 142118Z 21016KT 29/03 A2988 RMK A01 T02920027  RH  018%=      5-min Rain = 0
KPA1 142119Z 22016KT 29/02 A2988 RMK A01 T02900021  RH  018%=      5-min Rain = 0
KPA1 142120Z 21014KT 29/02 A2988 RMK A01 T02890018  RH  017%=      5-min Rain = 0
KPA1 142121Z 22011KT 29/02 A2988 RMK A01 T02900021  RH  018%=      5-min Rain = 0
KPA1 142122Z 22010KT 29/03 A2988 RMK A01 T02900033  RH  019%=      5-min Rain = 0
KPA1 142123Z 22013KT 29/03 A2988 RMK A01 T02890033  RH  019%=      5-min Rain = 0
KPA1 142124Z 21017G22KT 29/03 A2988 RMK A01 T02880031  RH  019%=      5-min Rain = 0
KPA1 142125Z 22020KT 29/02 A2987 RMK A01 T02880020  RH  018%=      5-min Rain = 0
KPA1 142126Z 22016KT 29/02 A2988 RMK A01 T02890020  RH  018%=      5-min Rain = 0
KPA1 142127Z 22017KT 29/03 A2988 RMK A01 T02890026  RH  019%=      5-min Rain = 0
KPA1 142128Z 22016KT 29/02 A2988 RMK A01 T02890023  RH  018%=      5-min Rain = 0
KPA1 142129Z 22013KT 29/03 A2988 RMK A01 T02890028  RH  019%=      5-min Rain = 0
KPA1 142130Z 23012G17KT 29/04 A2988 RMK A01 T02880036  RH  020%=      5-min Rain = 0
KPA1 142131Z 23012KT 29/03 A2988 RMK A01 T02870030  RH  019%=      5-min Rain = 0
KPA1 142132Z 22012KT 29/03 A2988 RMK A01 T02880027  RH  019%=      5-min Rain = 0
KPA1 142133Z 21012KT 29/02 A2988 RMK A01 T02890018  RH  018%=      5-min Rain = 0
KPA1 142134Z 22011KT 29/02 A2988 RMK A01 T02890021  RH  018%=      5-min Rain = 0
KPA1 142135Z 23010KT 29/03 A2988 RMK A01 T02900031  RH  019%=      5-min Rain = 0
KPA1 142136Z 23012KT 29/03 A2988 RMK A01 T02890029  RH  019%=      5-min Rain = 0
KPA1 142137Z 23012KT 29/03 A2988 RMK A01 T02890025  RH  018%=      5-min Rain = 0
KPA1 142138Z 23012KT 29/02 A2987 RMK A01 T02890024  RH  018%=      5-min Rain = 0
KPA1 142139Z 24011KT 29/03 A2987 RMK A01 T02890029  RH  019%=      5-min Rain = 0
KPA1 142140Z 24011KT 29/02 A2987 RMK A01 T02900021  RH  018%=      5-min Rain = 0
KPA1 142141Z 23010KT 29/02 A2987 RMK A01 T02900017  RH  017%=      5-min Rain = 0
KPA1 142142Z 22012KT 29/03 A2987 RMK A01 T02890026  RH  018%=      5-min Rain = 0
KPA1 142143Z 22015KT 29/02 A2987 RMK A01 T02900024  RH  018%=      5-min Rain = 0
KPA1 142144Z 22014KT 29/03 A2987 RMK A01 T02890025  RH  018%=      5-min Rain = 0
KPA1 142145Z 23010KT 29/02 A2987 RMK A01 T02880021  RH  018%=      5-min Rain = 0
KPA1 142146Z 22013KT 29/03 A2987 RMK A01 T02880028  RH  019%=      5-min Rain = 0
KPA1 142147Z 22011KT 29/03 A2987 RMK A01 T02890026  RH  019%=      5-min Rain = 0
KPA1 142148Z 22009KT 29/02 A2987 RMK A01 T02890024  RH  018%=      5-min Rain = 0
KPA1 142149Z 21011KT 29/03 A2987 RMK A01 T02900028  RH  019%=      5-min Rain = 0
KPA1 142150Z 22015KT 29/04 A2987 RMK A01 T02890035  RH  020%=      5-min Rain = 0
KPA1 142151Z 21016KT 29/04 A2987 RMK A01 T02880038  RH  020%=      5-min Rain = 0
KPA1 142152Z 22017KT 29/04 A2987 RMK A01 T02870042  RH  021%=      5-min Rain = 0
KPA1 142153Z 22014KT 29/04 A2987 RMK A01 T02850044  RH  021%=      5-min Rain = 0
KPA1 142154Z 21014KT 28/05 A2987 RMK A01 T02830048  RH  022%=      5-min Rain = 0
KPA1 142155Z 21016KT 28/04 A2987 RMK A01 T02830041  RH  021%=      5-min Rain = 0
KPA1 142156Z 22017KT 28/04 A2987 RMK A01 T02840043  RH  021%=      5-min Rain = 0
KPA1 142157Z 21018KT 28/04 A2987 RMK A01 T02830041  RH  021%=      5-min Rain = 0
KPA1 142158Z 21018KT 28/04 A2987 RMK A01 T02820036  RH  021%=      5-min Rain = 0
KPA1 142159Z 22015KT 28/04 A2987 RMK A01 T02820038  RH  021%=      5-min Rain = 0
KPA1 142200Z 21016KT 28/04 A2987 RMK A01 T02810041  RH  022%=      5-min Rain = 0
KPA1 142201Z 20016KT 28/04 A2988 RMK A01 T02800036  RH  021%=      5-min Rain = 0
KPA1 142202Z 21013KT 28/04 A2988 RMK A01 T02810035  RH  021%=      5-min Rain = 0
KPA1 142203Z 21012KT 28/04 A2987 RMK A01 T02820038  RH  021%=      5-min Rain = 0
KPA1 142204Z 20012KT 28/04 A2987 RMK A01 T02820040  RH  021%=      5-min Rain = 0
KPA1 142205Z 20013KT 28/05 A2987 RMK A01 T02810046  RH  022%=      5-min Rain = 0
KPA1 142206Z 20014KT 28/05 A2987 RMK A01 T02800046  RH  022%=      5-min Rain = 0
KPA1 142207Z 21014KT 28/04 A2987 RMK A01 T02810037  RH  021%=      5-min Rain = 0
KPA1 142208Z 21014KT 28/04 A2987 RMK A01 T02810040  RH  021%=      5-min Rain = 0
KPA1 142209Z 21015KT 28/04 A2987 RMK A01 T02810044  RH  022%=      5-min Rain = 0
KPA1 142210Z 21015KT 28/04 A2987 RMK A01 T02800041  RH  022%=      5-min Rain = 0
KPA1 142211Z 21016KT 28/04 A2987 RMK A01 T02780038  RH  021%=      5-min Rain = 0
KPA1 142212Z 21015G21KT 28/04 A2988 RMK A01 T02780038  RH  021%=      5-min Rain = 0
KPA1 142213Z 21014KT 28/05 A2988 RMK A01 T02780045  RH  023%=      5-min Rain = 0
KPA1 142214Z 21013KT 28/04 A2988 RMK A01 T02770039  RH  022%=      5-min Rain = 0
KPA1 142215Z 21014KT 28/04 A2987 RMK A01 T02780038  RH  022%=      5-min Rain = 0
KPA1 142216Z 21014KT 28/04 A2988 RMK A01 T02790038  RH  021%=      5-min Rain = 0
KPA1 142217Z 21017KT 28/04 A2988 RMK A01 T02790037  RH  021%=      5-min Rain = 0
KPA1 142218Z 21015KT 28/03 A2988 RMK A01 T02790034  RH  021%=      5-min Rain = 0
KPA1 142219Z 21014KT 28/04 A2988 RMK A01 T02780036  RH  021%=      5-min Rain = 0
KPA1 142220Z 22014KT 28/03 A2988 RMK A01 T02790031  RH  020%=      5-min Rain = 0
KPA1 142221Z 21013KT 28/03 A2987 RMK A01 T02790032  RH  021%=      5-min Rain = 0
KPA1 142222Z 21014G20KT 28/04 A2987 RMK A01 T02780038  RH  022%=      5-min Rain = 0
KPA1 142223Z 20015KT 28/04 A2988 RMK A01 T02770037  RH  021%=      5-min Rain = 0
KPA1 142224Z 20015KT 28/04 A2987 RMK A01 T02770035  RH  021%=      5-min Rain = 0
KPA1 142225Z 20015KT 28/04 A2988 RMK A01 T02760036  RH  021%=      5-min Rain = 0
KPA1 142226Z 20013KT 28/04 A2988 RMK A01 T02750039  RH  022%=      5-min Rain = 0
KPA1 142227Z 20016KT 28/04 A2988 RMK A01 T02750038  RH  022%=      5-min Rain = 0
KPA1 142228Z 20017KT 28/03 A2988 RMK A01 T02750028  RH  020%=      5-min Rain = 0
KPA1 142229Z 21016KT 28/03 A2988 RMK A01 T02760028  RH  020%=      5-min Rain = 0
KPA1 142230Z 21015KT 28/03 A2988 RMK A01 T02750034  RH  021%=      5-min Rain = 0
KPA1 142231Z 20014KT 28/03 A2988 RMK A01 T02750034  RH  021%=      5-min Rain = 0
KPA1 142232Z 20015KT 27/03 A2988 RMK A01 T02740033  RH  021%=      5-min Rain = 0
KPA1 142233Z 19014KT 27/03 A2988 RMK A01 T02740027  RH  020%=      5-min Rain = 0
KPA1 142234Z 20016KT 28/03 A2988 RMK A01 T02750028  RH  020%=      5-min Rain = 0
KPA1 142235Z 19016KT 28/03 A2988 RMK A01 T02750025  RH  020%=      5-min Rain = 0
KPA1 142236Z 20015KT 28/02 A2988 RMK A01 T02750023  RH  020%=      5-min Rain = 0
KPA1 142237Z 21014KT 28/03 A2988 RMK A01 T02760028  RH  020%=      5-min Rain = 0
KPA1 142238Z 21014KT 28/03 A2988 RMK A01 T02750031  RH  021%=      5-min Rain = 0
KPA1 142239Z 21014KT 27/04 A2988 RMK A01 T02740037  RH  022%=      5-min Rain = 0
KPA1 142240Z 21016KT 27/04 A2988 RMK A01 T02730035  RH  022%=      5-min Rain = 0
KPA1 142241Z 21017KT 27/03 A2988 RMK A01 T02730025  RH  020%=      5-min Rain = 0
KPA1 142242Z 21016KT 27/03 A2988 RMK A01 T02730026  RH  020%=      5-min Rain = 0
KPA1 142243Z 21015KT 27/03 A2988 RMK A01 T02730027  RH  021%=      5-min Rain = 0
KPA1 142244Z 21015KT 27/03 A2988 RMK A01 T02720031  RH  021%=      5-min Rain = 0
KPA1 142245Z 21016KT 27/02 A2988 RMK A01 T02720024  RH  020%=      5-min Rain = 0
KPA1 142246Z 21015KT 27/03 A2988 RMK A01 T02720026  RH  021%=      5-min Rain = 0
KPA1 142247Z 21015KT 27/03 A2988 RMK A01 T02720032  RH  021%=      5-min Rain = 0
KPA1 142248Z 21015KT 27/03 A2988 RMK A01 T02710028  RH  021%=      5-min Rain = 0
KPA1 142249Z 21014KT 27/03 A2988 RMK A01 T02710028  RH  021%=      5-min Rain = 0
KPA1 142250Z 20014KT 27/03 A2988 RMK A01 T02710026  RH  021%=      5-min Rain = 0
KPA1 142251Z 20012KT 27/03 A2988 RMK A01 T02710030  RH  021%=      5-min Rain = 0
KPA1 142252Z 20012KT 27/03 A2988 RMK A01 T02710030  RH  021%=      5-min Rain = 0
KPA1 142253Z 20013KT 27/03 A2988 RMK A01 T02710030  RH  021%=      5-min Rain = 0
KPA1 142254Z 20013KT 27/03 A2988 RMK A01 T02710031  RH  021%=      5-min Rain = 0
KPA1 142255Z 20014KT 27/04 A2988 RMK A01 T02700036  RH  022%=      5-min Rain = 0
KPA1 142256Z 20012KT 27/03 A2988 RMK A01 T02690034  RH  022%=      5-min Rain = 0
KPA1 142257Z 20014KT 27/04 A2988 RMK A01 T02680039  RH  023%=      5-min Rain = 0
KPA1 142258Z 20017KT 27/03 A2988 RMK A01 T02670029  RH  022%=      5-min Rain = 0
KPA1 142259Z 20016KT 27/02 A2988 RMK A01 T02680021  RH  020%=      5-min Rain = 0
KPA1 142300Z 20015KT 27/02 A2988 RMK A01 T02690024  RH  021%=      5-min Rain = 0
KPA1 142301Z 21013KT 27/03 A2988 RMK A01 T02690031  RH  022%=      5-min Rain = 0
KPA1 142302Z 21014KT 27/03 A2988 RMK A01 T02670034  RH  022%=      5-min Rain = 0
KPA1 142303Z 21014KT 27/04 A2988 RMK A01 T02660036  RH  023%=      5-min Rain = 0
KPA1 142304Z 21014KT 27/04 A2988 RMK A01 T02650036  RH  023%=      5-min Rain = 0
KPA1 142305Z 21014KT 26/03 A2988 RMK A01 T02640034  RH  023%=      5-min Rain = 0
KPA1 142306Z 21015KT 26/03 A2988 RMK A01 T02640032  RH  022%=      5-min Rain = 0
KPA1 142307Z 21015KT 26/04 A2988 RMK A01 T02630036  RH  023%=      5-min Rain = 0
KPA1 142308Z 21015KT 26/04 A2988 RMK A01 T02620035  RH  023%=      5-min Rain = 0
KPA1 142309Z 21014KT 26/03 A2988 RMK A01 T02620033  RH  023%=      5-min Rain = 0
KPA1 142310Z 21012KT 26/03 A2988 RMK A01 T02620033  RH  023%=      5-min Rain = 0
KPA1 142311Z 21013KT 26/03 A2988 RMK A01 T02620030  RH  022%=      5-min Rain = 0
KPA1 142312Z 20012KT 26/03 A2988 RMK A01 T02630034  RH  023%=      5-min Rain = 0
KPA1 142313Z 20012KT 26/04 A2988 RMK A01 T02620039  RH  024%=      5-min Rain = 0
KPA1 142314Z 20013KT 26/04 A2988 RMK A01 T02610037  RH  024%=      5-min Rain = 0
KPA1 142315Z 20013KT 26/04 A2988 RMK A01 T02600035  RH  023%=      5-min Rain = 0
KPA1 142316Z 20014KT 26/03 A2988 RMK A01 T02600032  RH  023%=      5-min Rain = 0
KPA1 142317Z 20013KT 26/03 A2988 RMK A01 T02600032  RH  023%=      5-min Rain = 0
KPA1 142318Z 20013KT 26/03 A2988 RMK A01 T02600034  RH  023%=      5-min Rain = 0
KPA1 142319Z 20013KT 26/03 A2988 RMK A01 T02600031  RH  023%=      5-min Rain = 0
KPA1 142320Z 20012KT 26/03 A2988 RMK A01 T02590030  RH  023%=      5-min Rain = 0
KPA1 142321Z 20011KT 26/03 A2988 RMK A01 T02600032  RH  023%=      5-min Rain = 0
KPA1 142322Z 19013KT 26/03 A2988 RMK A01 T02590030  RH  023%=      5-min Rain = 0
KPA1 142323Z 19014KT 26/02 A2988 RMK A01 T02600022  RH  021%=      5-min Rain = 0
KPA1 142324Z 19015KT 26/02 A2988 RMK A01 T02610024  RH  021%=      5-min Rain = 0
KPA1 142325Z 20014KT 26/03 A2988 RMK A01 T02610025  RH  022%=      5-min Rain = 0
KPA1 142326Z 20015KT 26/03 A2988 RMK A01 T02600025  RH  022%=      5-min Rain = 0
KPA1 142327Z 20013KT 26/03 A2988 RMK A01 T02600027  RH  022%=      5-min Rain = 0
KPA1 142328Z 20012KT 26/03 A2988 RMK A01 T02580033  RH  023%=      5-min Rain = 0
KPA1 142329Z 20012KT 26/03 A2988 RMK A01 T02560034  RH  024%=      5-min Rain = 0
KPA1 142330Z 20012KT 25/03 A2988 RMK A01 T02540032  RH  024%=      5-min Rain = 0
KPA1 142331Z 20013KT 25/03 A2988 RMK A01 T02540034  RH  024%=      5-min Rain = 0
KPA1 142332Z 20012KT 25/03 A2988 RMK A01 T02530034  RH  024%=      5-min Rain = 0
KPA1 142333Z 20012KT 25/03 A2988 RMK A01 T02520034  RH  024%=      5-min Rain = 0
KPA1 142334Z 20012KT 25/03 A2988 RMK A01 T02510034  RH  024%=      5-min Rain = 0
KPA1 142335Z 20012KT 25/03 A2988 RMK A01 T02510032  RH  024%=      5-min Rain = 0
KPA1 142336Z 20011KT 25/03 A2988 RMK A01 T02510030  RH  024%=      5-min Rain = 0
KPA1 142337Z 20011KT 25/03 A2988 RMK A01 T02510031  RH  024%=      5-min Rain = 0
KPA1 142338Z 20011KT 25/03 A2988 RMK A01 T02510030  RH  024%=      5-min Rain = 0
KPA1 142339Z 20010KT 25/03 A2988 RMK A01 T02500032  RH  024%=      5-min Rain = 0
KPA1 142340Z 20010KT 25/03 A2988 RMK A01 T02490033  RH  025%=      5-min Rain = 0
KPA1 142341Z 20010KT 25/03 A2988 RMK A01 T02470034  RH  025%=      5-min Rain = 0
KPA1 142342Z 20009KT 25/04 A2988 RMK A01 T02460037  RH  026%=      5-min Rain = 0
KPA1 142343Z 19009KT 24/04 A2988 RMK A01 T02440038  RH  026%=      5-min Rain = 0
KPA1 142344Z 20008KT 24/04 A2988 RMK A01 T02430038  RH  026%=      5-min Rain = 0
KPA1 142345Z 20008KT 24/04 A2988 RMK A01 T02410041  RH  027%=      5-min Rain = 0
KPA1 142346Z 20009KT 24/04 A2988 RMK A01 T02390041  RH  028%=      5-min Rain = 0
KPA1 142347Z 19009KT 24/04 A2988 RMK A01 T02380040  RH  028%=      5-min Rain = 0
KPA1 142348Z 19009KT 24/04 A2988 RMK A01 T02380041  RH  028%=      5-min Rain = 0
KPA1 142349Z 19008KT 24/04 A2988 RMK A01 T02370042  RH  028%=      5-min Rain = 0
KPA1 142350Z 19008KT 24/04 A2988 RMK A01 T02350038  RH  028%=      5-min Rain = 0
KPA1 142351Z 19008KT 24/04 A2988 RMK A01 T02350037  RH  028%=      5-min Rain = 0
KPA1 142352Z 19008KT 23/04 A2988 RMK A01 T02340039  RH  028%=      5-min Rain = 0
KPA1 142353Z 19007KT 23/04 A2988 RMK A01 T02330039  RH  028%=      5-min Rain = 0
KPA1 142354Z 19007KT 23/04 A2988 RMK A01 T02320039  RH  028%=      5-min Rain = 0
KPA1 142355Z 19008KT 23/04 A2988 RMK A01 T02310040  RH  029%=      5-min Rain = 0
KPA1 142356Z 19007KT 23/04 A2988 RMK A01 T02300040  RH  029%=      5-min Rain = 0
KPA1 142357Z 19008KT 23/04 A2988 RMK A01 T02290041  RH  029%=      5-min Rain = 0
KPA1 142358Z 19008KT 23/04 A2988 RMK A01 T02280042  RH  030%=      5-min Rain = 0
KPA1 142359Z 19008KT 23/04 A2988 RMK A01 T02270042  RH  030%=      5-min Rain = 0
KPA1 150000Z 19008KT 23/04 A2988 RMK A01 T02250042  RH  030%=      5-min Rain = 0
KPA1 150001Z 19008KT 22/04 A2988 RMK A01 T02240041  RH  030%=      5-min Rain = 0
KPA1 150002Z 19008KT 22/04 A2988 RMK A01 T02230041  RH  030%=      5-min Rain = 0
KPA1 150003Z 18008KT 22/04 A2988 RMK A01 T02210041  RH  031%=      5-min Rain = 0
KPA1 150004Z 18007KT 22/04 A2988 RMK A01 T02180041  RH  031%=      5-min Rain = 0
KPA1 150005Z 18007KT 22/04 A2988 RMK A01 T02160040  RH  032%=      5-min Rain = 0
KPA1 150006Z 18007KT 21/04 A2988 RMK A01 T02130039  RH  032%=      5-min Rain = 0
KPA1 150007Z 18007KT 21/04 A2988 RMK A01 T02090038  RH  033%=      5-min Rain = 0
KPA1 150008Z 18007KT 21/04 A2988 RMK A01 T02050039  RH  033%=      5-min Rain = 0
KPA1 150009Z 18007KT 20/04 A2988 RMK A01 T02020039  RH  034%=      5-min Rain = 0
KPA1 150010Z 18007KT 20/04 A2988 RMK A01 T01990040  RH  035%=      5-min Rain = 0
KPA1 150011Z 18007KT 20/04 A2989 RMK A01 T01960041  RH  036%=      5-min Rain = 0
KPA1 150012Z 18008KT 19/04 A2989 RMK A01 T01930042  RH  037%=      5-min Rain = 0
KPA1 150013Z 18008KT 19/04 A2989 RMK A01 T01900042  RH  037%=      5-min Rain = 0
KPA1 150014Z 18008KT 19/04 A2989 RMK A01 T01890042  RH  038%=      5-min Rain = 0
KPA1 150015Z 18008KT 19/04 A2989 RMK A01 T01880042  RH  038%=      5-min Rain = 0
KPA1 150016Z 18008KT 19/04 A2989 RMK A01 T01860042  RH  039%=      5-min Rain = 0
KPA1 150017Z 18008KT 19/04 A2989 RMK A01 T01850043  RH  039%=      5-min Rain = 0
KPA1 150018Z 18008KT 18/04 A2989 RMK A01 T01830043  RH  040%=      5-min Rain = 0
KPA1 150019Z 18008KT 18/04 A2989 RMK A01 T01810043  RH  040%=      5-min Rain = 0
KPA1 150020Z 18008KT 18/04 A2989 RMK A01 T01800042  RH  040%=      5-min Rain = 0
KPA1 150021Z 18008KT 18/04 A2989 RMK A01 T01790043  RH  041%=      5-min Rain = 0
KPA1 150022Z 18008KT 18/04 A2989 RMK A01 T01770044  RH  041%=      5-min Rain = 0
KPA1 150023Z 18008KT 18/04 A2989 RMK A01 T01750044  RH  042%=      5-min Rain = 0
KPA1 150024Z 18008KT 17/04 A2989 RMK A01 T01740044  RH  042%=      5-min Rain = 0
KPA1 150025Z 17008KT 17/04 A2989 RMK A01 T01730044  RH  042%=      5-min Rain = 0
KPA1 150026Z 17008KT 17/05 A2989 RMK A01 T01720045  RH  043%=      5-min Rain = 0
KPA1 150027Z 17008KT 17/05 A2989 RMK A01 T01710047  RH  044%=      5-min Rain = 0
KPA1 150028Z 17008KT 17/05 A2989 RMK A01 T01700048  RH  044%=      5-min Rain = 0
KPA1 150029Z 17008KT 17/05 A2989 RMK A01 T01690049  RH  045%=      5-min Rain = 0
KPA1 150030Z 17008KT 17/05 A2989 RMK A01 T01690049  RH  045%=      5-min Rain = 0
KPA1 150031Z 17008KT 17/05 A2989 RMK A01 T01680050  RH  046%=      5-min Rain = 0
KPA1 150032Z 17008KT 17/05 A2989 RMK A01 T01670050  RH  046%=      5-min Rain = 0
KPA1 150033Z 17008KT 17/05 A2989 RMK A01 T01670051  RH  046%=      5-min Rain = 0
KPA1 150034Z 17009KT 17/05 A2989 RMK A01 T01660051  RH  047%=      5-min Rain = 0
KPA1 150035Z 17008KT 17/05 A2989 RMK A01 T01650052  RH  047%=      5-min Rain = 0
KPA1 150036Z 17008KT 16/05 A2989 RMK A01 T01640052  RH  047%=      5-min Rain = 0
KPA1 150037Z 17008KT 16/05 A2989 RMK A01 T01630052  RH  048%=      5-min Rain = 0
KPA1 150038Z 17008KT 16/05 A2989 RMK A01 T01620052  RH  048%=      5-min Rain = 0
KPA1 150039Z 17008KT 16/05 A2989 RMK A01 T01610052  RH  048%=      5-min Rain = 0
KPA1 150040Z 17009KT 16/05 A2989 RMK A01 T01600052  RH  049%=      5-min Rain = 0
KPA1 150041Z 17008KT 16/05 A2989 RMK A01 T01600053  RH  049%=      5-min Rain = 0
KPA1 150042Z 17008KT 16/05 A2989 RMK A01 T01590052  RH  049%=      5-min Rain = 0
KPA1 150043Z 17008KT 16/05 A2989 RMK A01 T01580052  RH  049%=      5-min Rain = 0
KPA1 150044Z 17008KT 16/05 A2989 RMK A01 T01580052  RH  050%=      5-min Rain = 0
KPA1 150045Z 17008KT 16/05 A2989 RMK A01 T01570053  RH  050%=      5-min Rain = 0
KPA1 150046Z 17008KT 16/05 A2989 RMK A01 T01560053  RH  050%=      5-min Rain = 0
KPA1 150047Z 17008KT 16/05 A2989 RMK A01 T01550052  RH  050%=      5-min Rain = 0
KPA1 150048Z 17008KT 16/05 A2989 RMK A01 T01550053  RH  051%=      5-min Rain = 0
KPA1 150049Z 18008KT 15/05 A2989 RMK A01 T01540053  RH  051%=      5-min Rain = 0
KPA1 150050Z 17007KT 15/05 A2989 RMK A01 T01540054  RH  051%=      5-min Rain = 0
KPA1 150051Z 17007KT 15/05 A2989 RMK A01 T01530054  RH  052%=      5-min Rain = 0
KPA1 150052Z 17008KT 15/05 A2989 RMK A01 T01520054  RH  052%=      5-min Rain = 0
KPA1 150053Z 17008KT 15/05 A2989 RMK A01 T01510054  RH  052%=      5-min Rain = 0
KPA1 150054Z 17008KT 15/06 A2989 RMK A01 T01510055  RH  053%=      5-min Rain = 0
KPA1 150055Z 17008KT 15/06 A2989 RMK A01 T01500056  RH  053%=      5-min Rain = 0
KPA1 150056Z 18008KT 15/06 A2989 RMK A01 T01500056  RH  053%=      5-min Rain = 0
KPA1 150057Z 18009KT 15/06 A2989 RMK A01 T01500057  RH  053%=      5-min Rain = 0
KPA1 150058Z 18008KT 15/06 A2989 RMK A01 T01510057  RH  054%=      5-min Rain = 0
KPA1 150059Z 18008KT 15/06 A2989 RMK A01 T01510057  RH  054%=      5-min Rain = 0
KPA1 150100Z 18009KT 15/06 A2989 RMK A01 T01510058  RH  054%=      5-min Rain = 0
KPA1 150101Z 18008KT 15/06 A2989 RMK A01 T01510058  RH  054%=      5-min Rain = 0
KPA1 150102Z 18008KT 15/06 A2989 RMK A01 T01510059  RH  054%=      5-min Rain = 0
KPA1 150103Z 18008KT 15/06 A2989 RMK A01 T01510059  RH  054%=      5-min Rain = 0
KPA1 150104Z 18008KT 15/06 A2989 RMK A01 T01510059  RH  054%=      5-min Rain = 0
KPA1 150105Z 18008KT 15/06 A2989 RMK A01 T01510060  RH  054%=      5-min Rain = 0
KPA1 150106Z 18008KT 15/06 A2989 RMK A01 T01510060  RH  054%=      5-min Rain = 0
KPA1 150107Z 18008KT 15/06 A299 RMK A01 T01510060  RH  055%=      5-min Rain = 0
KPA1 150108Z 18008KT 15/06 A299 RMK A01 T01500060  RH  055%=      5-min Rain = 0
KPA1 150109Z 18008KT 15/06 A299 RMK A01 T01490061  RH  055%=      5-min Rain = 0
KPA1 150110Z 18007KT 15/06 A299 RMK A01 T01490061  RH  056%=      5-min Rain = 0
KPA1 150111Z 18007KT 15/06 A299 RMK A01 T01490061  RH  056%=      5-min Rain = 0
KPA1 150112Z 18007KT 15/06 A299 RMK A01 T01490062  RH  056%=      5-min Rain = 0
KPA1 150113Z 18007KT 15/06 A299 RMK A01 T01480062  RH  056%=      5-min Rain = 0
KPA1 150114Z 18006KT 15/06 A299 RMK A01 T01480061  RH  056%=      5-min Rain = 0
KPA1 150115Z 18006KT 15/06 A299 RMK A01 T01480061  RH  056%=      5-min Rain = 0
KPA1 150116Z 18006KT 15/06 A299 RMK A01 T01480061  RH  056%=      5-min Rain = 0
KPA1 150117Z 18006KT 15/06 A299 RMK A01 T01480061  RH  056%=      5-min Rain = 0
KPA1 150118Z 18006KT 15/06 A299 RMK A01 T01480061  RH  056%=      5-min Rain = 0
KPA1 150119Z 18006KT 15/06 A299 RMK A01 T01480061  RH  056%=      5-min Rain = 0
KPA1 150120Z 18006KT 15/06 A299 RMK A01 T01480061  RH  056%=      5-min Rain = 0
KPA1 150121Z 18006KT 15/06 A299 RMK A01 T01480061  RH  056%=      5-min Rain = 0
KPA1 150122Z 18006KT 15/06 A299 RMK A01 T01480060  RH  056%=      5-min Rain = 0
KPA1 150123Z 18006KT 15/06 A299 RMK A01 T01480060  RH  056%=      5-min Rain = 0
KPA1 150124Z 18007KT 15/06 A299 RMK A01 T01490060  RH  055%=      5-min Rain = 0
KPA1 150125Z 18007KT 15/06 A299 RMK A01 T01500060  RH  055%=      5-min Rain = 0
KPA1 150126Z 18007KT 15/06 A299 RMK A01 T01500060  RH  055%=      5-min Rain = 0
KPA1 150127Z 18006KT 15/06 A299 RMK A01 T01500059  RH  054%=      5-min Rain = 0
KPA1 150128Z 18006KT 15/06 A299 RMK A01 T01500059  RH  054%=      5-min Rain = 0
KPA1 150129Z 18006KT 15/06 A299 RMK A01 T01510059  RH  054%=      5-min Rain = 0
KPA1 150130Z 18005KT 15/06 A299 RMK A01 T01520059  RH  054%=      5-min Rain = 0
KPA1 150131Z 18005KT 15/06 A299 RMK A01 T01520058  RH  054%=      5-min Rain = 0
KPA1 150132Z 18005KT 15/06 A299 RMK A01 T01520058  RH  053%=      5-min Rain = 0
KPA1 150133Z 18005KT 15/06 A299 RMK A01 T01520058  RH  053%=      5-min Rain = 0
KPA1 150134Z 18005KT 15/06 A299 RMK A01 T01520058  RH  053%=      5-min Rain = 0
KPA1 150135Z 18005KT 15/06 A299 RMK A01 T01520058  RH  053%=      5-min Rain = 0
KPA1 150136Z 18005KT 15/06 A299 RMK A01 T01510059  RH  054%=      5-min Rain = 0
KPA1 150137Z 18005KT 15/06 A299 RMK A01 T01510059  RH  054%=      5-min Rain = 0
KPA1 150138Z 18005KT 15/06 A299 RMK A01 T01500058  RH  054%=      5-min Rain = 0
KPA1 150139Z 18006KT 15/06 A299 RMK A01 T01500057  RH  054%=      5-min Rain = 0
KPA1 150140Z 18005KT 15/06 A299 RMK A01 T01500057  RH  054%=      5-min Rain = 0
KPA1 150141Z 18005KT 15/06 A299 RMK A01 T01500056  RH  053%=      5-min Rain = 0
KPA1 150142Z 18005KT 15/06 A299 RMK A01 T01500056  RH  053%=      5-min Rain = 0
KPA1 150143Z 19005KT 15/06 A299 RMK A01 T01500056  RH  053%=      5-min Rain = 0
KPA1 150144Z 19005KT 15/06 A299 RMK A01 T01500057  RH  054%=      5-min Rain = 0
KPA1 150145Z 19005KT 15/06 A299 RMK A01 T01510058  RH  054%=      5-min Rain = 0
KPA1 150146Z 19004KT 15/06 A299 RMK A01 T01510061  RH  055%=      5-min Rain = 0
KPA1 150147Z 19004KT 15/07 A299 RMK A01 T01510065  RH  056%=      5-min Rain = 0
KPA1 150148Z 19004KT 15/07 A2991 RMK A01 T01510069  RH  058%=      5-min Rain = 0
KPA1 150149Z 19004KT 15/07 A2991 RMK A01 T01510069  RH  058%=      5-min Rain = 0
KPA1 150150Z 19004KT 15/07 A2991 RMK A01 T01510068  RH  057%=      5-min Rain = 0
KPA1 150151Z 19004KT 15/07 A2991 RMK A01 T01520067  RH  057%=      5-min Rain = 0
KPA1 150152Z 19004KT 15/07 A2991 RMK A01 T01520065  RH  056%=      5-min Rain = 0
KPA1 150153Z 18004KT 15/07 A2991 RMK A01 T01530065  RH  056%=      5-min Rain = 0
KPA1 150154Z 19004KT 15/06 A2991 RMK A01 T01540064  RH  055%=      5-min Rain = 0
KPA1 150155Z 19004KT 15/06 A2991 RMK A01 T01540062  RH  054%=      5-min Rain = 0
KPA1 150156Z 19004KT 15/06 A2991 RMK A01 T01530062  RH  054%=      5-min Rain = 0
KPA1 150157Z 19004KT 15/06 A2991 RMK A01 T01530063  RH  055%=      5-min Rain = 0
KPA1 150158Z 18004KT 15/07 A2991 RMK A01 T01520067  RH  057%=      5-min Rain = 0
KPA1 150159Z 18004KT 15/07 A2991 RMK A01 T01510070  RH  059%=      5-min Rain = 0
KPA1 150200Z 19004KT 15/07 A2991 RMK A01 T01500067  RH  057%=      5-min Rain = 0
KPA1 150201Z 19005KT 15/06 A2991 RMK A01 T01500062  RH  056%=      5-min Rain = 0
KPA1 150202Z 19005KT 15/06 A2991 RMK A01 T01500061  RH  055%=      5-min Rain = 0
KPA1 150203Z 19005KT 15/06 A2991 RMK A01 T01500061  RH  055%=      5-min Rain = 0
KPA1 150204Z 18005KT 15/06 A2991 RMK A01 T01500060  RH  055%=      5-min Rain = 0
KPA1 150205Z 18005KT 15/06 A2991 RMK A01 T01500059  RH  054%=      5-min Rain = 0
KPA1 150206Z 18005KT 15/06 A2991 RMK A01 T01500058  RH  054%=      5-min Rain = 0
KPA1 150207Z 18005KT 15/06 A2991 RMK A01 T01500056  RH  054%=      5-min Rain = 0
KPA1 150208Z 18005KT 15/06 A2991 RMK A01 T01490055  RH  053%=      5-min Rain = 0
KPA1 150209Z 18006KT 15/06 A2991 RMK A01 T01480055  RH  054%=      5-min Rain = 0
KPA1 150210Z 18006KT 15/06 A2991 RMK A01 T01470055  RH  054%=      5-min Rain = 0
KPA1 150211Z 18006KT 15/06 A2991 RMK A01 T01460055  RH  055%=      5-min Rain = 0
KPA1 150212Z 18006KT 15/06 A2991 RMK A01 T01450056  RH  055%=      5-min Rain = 0
KPA1 150213Z 18006KT 14/06 A2991 RMK A01 T01440056  RH  055%=      5-min Rain = 0
KPA1 150214Z 18006KT 14/06 A2991 RMK A01 T01430056  RH  056%=      5-min Rain = 0
KPA1 150215Z 18005KT 14/06 A2991 RMK A01 T01430056  RH  056%=      5-min Rain = 0
KPA1 150216Z 18006KT 14/06 A2991 RMK A01 T01420057  RH  056%=      5-min Rain = 0
KPA1 150217Z 18006KT 14/06 A2991 RMK A01 T01410057  RH  057%=      5-min Rain = 0
KPA1 150218Z 18005KT 14/06 A2991 RMK A01 T01410057  RH  057%=      5-min Rain = 0
KPA1 150219Z 18006KT 14/06 A2991 RMK A01 T01410057  RH  057%=      5-min Rain = 0
KPA1 150220Z 18005KT 14/06 A2991 RMK A01 T01400057  RH  057%=      5-min Rain = 0
KPA1 150221Z 18006KT 14/06 A2991 RMK A01 T01400058  RH  057%=      5-min Rain = 0
KPA1 150222Z 18006KT 14/06 A2991 RMK A01 T01400058  RH  058%=      5-min Rain = 0
KPA1 150223Z 18006KT 14/06 A2991 RMK A01 T01390058  RH  058%=      5-min Rain = 0
KPA1 150224Z 18006KT 14/06 A2991 RMK A01 T01390058  RH  058%=      5-min Rain = 0
KPA1 150225Z 17007KT 14/06 A2991 RMK A01 T01390058  RH  058%=      5-min Rain = 0
KPA1 150226Z 17007KT 14/06 A2991 RMK A01 T01380059  RH  059%=      5-min Rain = 0
KPA1 150227Z 17008KT 14/06 A2991 RMK A01 T01370059  RH  059%=      5-min Rain = 0
KPA1 150228Z 17008KT 14/06 A2991 RMK A01 T01360059  RH  060%=      5-min Rain = 0
KPA1 150229Z 17008KT 14/06 A2991 RMK A01 T01350059  RH  060%=      5-min Rain = 0
KPA1 150230Z 17008KT 13/06 A2991 RMK A01 T01340060  RH  060%=      5-min Rain = 0
KPA1 150231Z 17008KT 14/06 A2991 RMK A01 T01350060  RH  061%=      5-min Rain = 0
KPA1 150232Z 17008KT 14/06 A2991 RMK A01 T01350060  RH  061%=      5-min Rain = 0
KPA1 150233Z 17009KT 13/06 A2991 RMK A01 T01340060  RH  061%=      5-min Rain = 0
KPA1 150234Z 17009KT 14/06 A2991 RMK A01 T01350060  RH  061%=      5-min Rain = 0
KPA1 150235Z 17008KT 14/06 A2991 RMK A01 T01350059  RH  060%=      5-min Rain = 0
KPA1 150236Z 17008KT 14/06 A2991 RMK A01 T01360060  RH  060%=      5-min Rain = 0
KPA1 150237Z 17008KT 14/06 A2991 RMK A01 T01370059  RH  059%=      5-min Rain = 0
KPA1 150238Z 17008KT 14/06 A2991 RMK A01 T01370059  RH  059%=      5-min Rain = 0
KPA1 150239Z 17008KT 14/06 A2991 RMK A01 T01370059  RH  059%=      5-min Rain = 0
KPA1 150240Z 17008KT 14/06 A2991 RMK A01 T01370059  RH  059%=      5-min Rain = 0
KPA1 150241Z 17008KT 14/06 A2991 RMK A01 T01370059  RH  059%=      5-min Rain = 0
KPA1 150242Z 17008KT 14/06 A2991 RMK A01 T01370059  RH  059%=      5-min Rain = 0
KPA1 150243Z 17008KT 14/06 A2991 RMK A01 T01370059  RH  059%=      5-min Rain = 0
KPA1 150244Z 17009KT 14/06 A2991 RMK A01 T01370059  RH  059%=      5-min Rain = 0
KPA1 150245Z 17009KT 14/06 A2991 RMK A01 T01370059  RH  059%=      5-min Rain = 0
KPA1 150246Z 18009KT 14/06 A2991 RMK A01 T01370059  RH  059%=      5-min Rain = 0
KPA1 150247Z 18009KT 14/06 A2991 RMK A01 T01370058  RH  059%=      5-min Rain = 0
KPA1 150248Z 18009KT 14/06 A2991 RMK A01 T01370059  RH  059%=      5-min Rain = 0
KPA1 150249Z 18008KT 14/06 A2991 RMK A01 T01370060  RH  059%=      5-min Rain = 0
KPA1 150250Z 18008KT 14/06 A2991 RMK A01 T01360060  RH  060%=      5-min Rain = 0
KPA1 150251Z 18008KT 14/06 A2991 RMK A01 T01360060  RH  060%=      5-min Rain = 0
KPA1 150252Z 18008KT 14/06 A2991 RMK A01 T01350061  RH  061%=      5-min Rain = 0
KPA1 150253Z 18008KT 14/06 A2991 RMK A01 T01350061  RH  061%=      5-min Rain = 0
KPA1 150254Z 18008KT 13/06 A2991 RMK A01 T01340062  RH  061%=      5-min Rain = 0
KPA1 150255Z 18008KT 13/06 A2991 RMK A01 T01340062  RH  062%=      5-min Rain = 0
KPA1 150256Z 18007KT 13/06 A2991 RMK A01 T01330062  RH  062%=      5-min Rain = 0
KPA1 150257Z 18007KT 13/06 A2991 RMK A01 T01340062  RH  062%=      5-min Rain = 0
KPA1 150258Z 18007KT 13/06 A2991 RMK A01 T01340063  RH  062%=      5-min Rain = 0
KPA1 150259Z 18007KT 13/06 A2991 RMK A01 T01340063  RH  062%=      5-min Rain = 0
KPA1 150300Z 18007KT 14/06 A2991 RMK A01 T01350063  RH  062%=      5-min Rain = 0
KPA1 150301Z 18007KT 14/06 A2991 RMK A01 T01350063  RH  062%=      5-min Rain = 0
KPA1 150302Z 18007KT 14/06 A2991 RMK A01 T01350064  RH  062%=      5-min Rain = 0
KPA1 150303Z 18007KT 14/06 A2991 RMK A01 T01350064  RH  062%=      5-min Rain = 0
KPA1 150304Z 18007KT 14/06 A2991 RMK A01 T01350064  RH  062%=      5-min Rain = 0
KPA1 150305Z 18007KT 14/07 A2991 RMK A01 T01350065  RH  062%=      5-min Rain = 0
KPA1 150306Z 18006KT 14/07 A2992 RMK A01 T01350065  RH  063%=      5-min Rain = 0
KPA1 150307Z 18006KT 13/07 A2992 RMK A01 T01340065  RH  063%=      5-min Rain = 0
KPA1 150308Z 18006KT 13/07 A2992 RMK A01 T01340065  RH  063%=      5-min Rain = 0
KPA1 150309Z 17006KT 13/07 A2992 RMK A01 T01340066  RH  063%=      5-min Rain = 0
KPA1 150310Z 18006KT 13/07 A2992 RMK A01 T01340066  RH  063%=      5-min Rain = 0
KPA1 150311Z 17006KT 13/07 A2992 RMK A01 T01340067  RH  064%=      5-min Rain = 0
KPA1 150312Z 18006KT 13/07 A2992 RMK A01 T01340067  RH  064%=      5-min Rain = 0
KPA1 150313Z 18006KT 13/07 A2992 RMK A01 T01340068  RH  064%=      5-min Rain = 0
KPA1 150314Z 18006KT 13/07 A2992 RMK A01 T01330068  RH  065%=      5-min Rain = 0
KPA1 150315Z 18006KT 13/07 A2992 RMK A01 T01340069  RH  065%=      5-min Rain = 0
KPA1 150316Z 18006KT 13/07 A2992 RMK A01 T01330069  RH  065%=      5-min Rain = 0
KPA1 150317Z 18007KT 13/07 A2992 RMK A01 T01330070  RH  065%=      5-min Rain = 0
KPA1 150318Z 18007KT 13/07 A2992 RMK A01 T01330070  RH  066%=      5-min Rain = 0
KPA1 150319Z 18007KT 13/07 A2992 RMK A01 T01330071  RH  066%=      5-min Rain = 0
KPA1 150320Z 18007KT 13/07 A2992 RMK A01 T01330071  RH  066%=      5-min Rain = 0
KPA1 150321Z 18007KT 13/07 A2992 RMK A01 T01320071  RH  067%=      5-min Rain = 0
KPA1 150322Z 18007KT 13/07 A2992 RMK A01 T01320072  RH  067%=      5-min Rain = 0
KPA1 150323Z 18007KT 13/07 A2992 RMK A01 T01320072  RH  067%=      5-min Rain = 0
KPA1 150324Z 18007KT 13/07 A2992 RMK A01 T01320072  RH  067%=      5-min Rain = 0
KPA1 150325Z 18007KT 13/07 A2992 RMK A01 T01320072  RH  067%=      5-min Rain = 0
KPA1 150326Z 18007KT 13/07 A2991 RMK A01 T01320073  RH  067%=      5-min Rain = 0
KPA1 150327Z 18007KT 13/07 A2991 RMK A01 T01330073  RH  067%=      5-min Rain = 0
KPA1 150328Z 18007KT 13/07 A2991 RMK A01 T01330074  RH  067%=      5-min Rain = 0
KPA1 150329Z 18007KT 13/07 A2991 RMK A01 T01330074  RH  067%=      5-min Rain = 0
KPA1 150330Z 18007KT 13/08 A2991 RMK A01 T01340075  RH  068%=      5-min Rain = 0
KPA1 150331Z 18007KT 13/08 A2991 RMK A01 T01340076  RH  068%=      5-min Rain = 0
KPA1 150332Z 18007KT 13/08 A2991 RMK A01 T01340076  RH  068%=      5-min Rain = 0
KPA1 150333Z 18007KT 13/08 A2991 RMK A01 T01340077  RH  068%=      5-min Rain = 0
KPA1 150334Z 18007KT 14/08 A2991 RMK A01 T01350077  RH  068%=      5-min Rain = 0
KPA1 150335Z 18007KT 13/08 A2991 RMK A01 T01340077  RH  068%=      5-min Rain = 0
KPA1 150336Z 18007KT 13/08 A2991 RMK A01 T01340078  RH  069%=      5-min Rain = 0
KPA1 150337Z 18007KT 14/08 A2991 RMK A01 T01350079  RH  069%=      5-min Rain = 0
KPA1 150338Z 18007KT 13/08 A2991 RMK A01 T01340079  RH  069%=      5-min Rain = 0
KPA1 150339Z 18007KT 13/08 A2991 RMK A01 T01340079  RH  069%=      5-min Rain = 0
KPA1 150340Z 18007KT 14/08 A2991 RMK A01 T01350079  RH  069%=      5-min Rain = 0
KPA1 150341Z 18007KT 14/08 A2991 RMK A01 T01350079  RH  069%=      5-min Rain = 0
KPA1 150342Z 18007KT 13/08 A2991 RMK A01 T01340079  RH  069%=      5-min Rain = 0
KPA1 150343Z 18007KT 14/08 A2991 RMK A01 T01350079  RH  069%=      5-min Rain = 0
KPA1 150344Z 18007KT 13/08 A2991 RMK A01 T01340079  RH  069%=      5-min Rain = 0
KPA1 150345Z 18007KT 13/08 A2991 RMK A01 T01340079  RH  069%=      5-min Rain = 0
KPA1 150346Z 18006KT 14/08 A2991 RMK A01 T01350080  RH  069%=      5-min Rain = 0
KPA1 150347Z 18006KT 14/08 A2991 RMK A01 T01360081  RH  069%=      5-min Rain = 0
KPA1 150348Z 18007KT 14/08 A2991 RMK A01 T01350081  RH  070%=      5-min Rain = 0
KPA1 150349Z 18007KT 14/08 A2991 RMK A01 T01350082  RH  070%=      5-min Rain = 0
KPA1 150350Z 19007KT 14/08 A2992 RMK A01 T01350082  RH  070%=      5-min Rain = 0
KPA1 150351Z 19006KT 14/08 A2992 RMK A01 T01350083  RH  071%=      5-min Rain = 0
KPA1 150352Z 19007KT 14/08 A2992 RMK A01 T01350083  RH  071%=      5-min Rain = 0
KPA1 150353Z 19007KT 14/08 A2992 RMK A01 T01350083  RH  071%=      5-min Rain = 0
KPA1 150354Z 19007KT 14/08 A2992 RMK A01 T01350084  RH  071%=      5-min Rain = 0
KPA1 150355Z 19006KT 14/08 A2992 RMK A01 T01350084  RH  071%=      5-min Rain = 0
KPA1 150356Z 19006KT 14/08 A2992 RMK A01 T01360084  RH  071%=      5-min Rain = 0
KPA1 150357Z 18007KT 14/09 A2992 RMK A01 T01370085  RH  071%=      5-min Rain = 0
KPA1 150358Z 18007KT 14/09 A2992 RMK A01 T01370085  RH  071%=      5-min Rain = 0
KPA1 150359Z 18007KT 14/09 A2992 RMK A01 T01380085  RH  070%=      5-min Rain = 0
KPA1 150400Z 18007KT 14/09 A2992 RMK A01 T01400086  RH  070%=      5-min Rain = 0
KPA1 150401Z 18007KT 14/09 A2992 RMK A01 T01420087  RH  070%=      5-min Rain = 0
KPA1 150402Z 18007KT 14/09 A2992 RMK A01 T01420087  RH  069%=      5-min Rain = 0
KPA1 150403Z 18007KT 14/09 A2992 RMK A01 T01430087  RH  069%=      5-min Rain = 0
KPA1 150404Z 18007KT 14/09 A2992 RMK A01 T01430087  RH  069%=      5-min Rain = 0
KPA1 150405Z 18008KT 14/09 A2992 RMK A01 T01430087  RH  069%=      5-min Rain = 0
KPA1 150406Z 18008KT 14/09 A2992 RMK A01 T01440088  RH  069%=      5-min Rain = 0
KPA1 150407Z 18008KT 15/09 A2992 RMK A01 T01460089  RH  069%=      5-min Rain = 0
KPA1 150408Z 19008KT 15/09 A2992 RMK A01 T01470090  RH  068%=      5-min Rain = 0
KPA1 150409Z 19008KT 15/09 A2992 RMK A01 T01490091  RH  068%=      5-min Rain = 0
KPA1 150410Z 18008KT 15/09 A2992 RMK A01 T01510091  RH  067%=      5-min Rain = 0
KPA1 150411Z 18009KT 15/09 A2992 RMK A01 T01520091  RH  067%=      5-min Rain = 0
KPA1 150412Z 18009KT 15/09 A2992 RMK A01 T01530091  RH  067%=      5-min Rain = 0
KPA1 150413Z 18009KT 15/09 A2992 RMK A01 T01530091  RH  066%=      5-min Rain = 0
KPA1 150414Z 18010KT 15/09 A2992 RMK A01 T01540091  RH  066%=      5-min Rain = 0
KPA1 150415Z 18010KT 15/09 A2991 RMK A01 T01540091  RH  066%=      5-min Rain = 0
KPA1 150416Z 18011KT 16/09 A2991 RMK A01 T01550092  RH  066%=      5-min Rain = 0
KPA1 150417Z 18010KT 16/09 A2991 RMK A01 T01570092  RH  065%=      5-min Rain = 0
KPA1 150418Z 18011KT 16/09 A2991 RMK A01 T01580092  RH  065%=      5-min Rain = 0
KPA1 150419Z 18011KT 16/09 A2991 RMK A01 T01600092  RH  064%=      5-min Rain = 0
KPA1 150420Z 18011KT 16/09 A2991 RMK A01 T01610092  RH  064%=      5-min Rain = 0
KPA1 150421Z 18011KT 16/09 A2991 RMK A01 T01620093  RH  064%=      5-min Rain = 0
KPA1 150422Z 18011KT 16/09 A2991 RMK A01 T01620093  RH  063%=      5-min Rain = 0
KPA1 150423Z 18011KT 16/09 A2991 RMK A01 T01620092  RH  063%=      5-min Rain = 0
KPA1 150424Z 18011KT 16/09 A2991 RMK A01 T01630093  RH  063%=      5-min Rain = 0
KPA1 150425Z 18011KT 16/09 A2991 RMK A01 T01630093  RH  063%=      5-min Rain = 0
KPA1 150426Z 18011KT 16/09 A2991 RMK A01 T01630092  RH  063%=      5-min Rain = 0
KPA1 150427Z 18011KT 16/09 A2991 RMK A01 T01630093  RH  063%=      5-min Rain = 0
KPA1 150428Z 19011KT 16/09 A2992 RMK A01 T01640093  RH  063%=      5-min Rain = 0
KPA1 150429Z 19011KT 16/09 A2992 RMK A01 T01640093  RH  063%=      5-min Rain = 0
KPA1 150430Z 19010KT 16/09 A2992 RMK A01 T01640094  RH  063%=      5-min Rain = 0
KPA1 150431Z 19010KT 16/09 A2992 RMK A01 T01640094  RH  063%=      5-min Rain = 0
KPA1 150432Z 19011KT 16/09 A2992 RMK A01 T01640094  RH  063%=      5-min Rain = 0
KPA1 150433Z 19010KT 16/09 A2992 RMK A01 T01640094  RH  063%=      5-min Rain = 0
KPA1 150434Z 19010KT 17/09 A2992 RMK A01 T01650094  RH  063%=      5-min Rain = 0
KPA1 150435Z 19009KT 17/09 A2992 RMK A01 T01650094  RH  063%=      5-min Rain = 0
KPA1 150436Z 19010KT 16/10 A2992 RMK A01 T01640095  RH  063%=      5-min Rain = 0
KPA1 150437Z 19010KT 16/10 A2992 RMK A01 T01640095  RH  063%=      5-min Rain = 0
KPA1 150438Z 19010KT 16/10 A2992 RMK A01 T01640095  RH  064%=      5-min Rain = 0
KPA1 150439Z 19010KT 16/10 A2992 RMK A01 T01630095  RH  064%=      5-min Rain = 0
KPA1 150440Z 19010KT 16/10 A2992 RMK A01 T01630095  RH  064%=      5-min Rain = 0
KPA1 150441Z 19010KT 16/10 A2992 RMK A01 T01620095  RH  064%=      5-min Rain = 0
KPA1 150442Z 19009KT 16/10 A2992 RMK A01 T01610095  RH  065%=      5-min Rain = 0
KPA1 150443Z 19009KT 16/10 A2992 RMK A01 T01610095  RH  065%=      5-min Rain = 0
KPA1 150444Z 19009KT 16/09 A2992 RMK A01 T01590094  RH  065%=      5-min Rain = 0
KPA1 150445Z 19009KT 16/09 A2992 RMK A01 T01580094  RH  066%=      5-min Rain = 0
KPA1 150446Z 19009KT 16/10 A2992 RMK A01 T01580095  RH  066%=      5-min Rain = 0
KPA1 150447Z 19009KT 16/09 A2992 RMK A01 T01570094  RH  066%=      5-min Rain = 0
KPA1 150448Z 18009KT 16/09 A2992 RMK A01 T01560094  RH  066%=      5-min Rain = 0
KPA1 150449Z 18009KT 16/09 A2992 RMK A01 T01560094  RH  067%=      5-min Rain = 0
KPA1 150450Z 18009KT 16/09 A2992 RMK A01 T01550094  RH  067%=      5-min Rain = 0
KPA1 150451Z 18008KT 15/09 A2992 RMK A01 T01540093  RH  067%=      5-min Rain = 0
KPA1 150452Z 18008KT 15/09 A2992 RMK A01 T01530093  RH  067%=      5-min Rain = 0
KPA1 150453Z 18008KT 15/09 A2992 RMK A01 T01520093  RH  068%=      5-min Rain = 0
KPA1 150454Z 18008KT 15/09 A2992 RMK A01 T01510093  RH  068%=      5-min Rain = 0
KPA1 150455Z 18007KT 15/09 A2992 RMK A01 T01500093  RH  068%=      5-min Rain = 0
KPA1 150456Z 18008KT 15/09 A2992 RMK A01 T01490093  RH  069%=      5-min Rain = 0
KPA1 150457Z 19007KT 15/09 A2992 RMK A01 T01480093  RH  069%=      5-min Rain = 0
KPA1 150458Z 19007KT 15/09 A2992 RMK A01 T01470092  RH  070%=      5-min Rain = 0
KPA1 150459Z 19007KT 15/09 A2992 RMK A01 T01460092  RH  070%=      5-min Rain = 0

Page generated in 0.0729 seconds.